Time,TemperatureF,DewpointF,PressureIn,WindDirection,WindDirectionDegrees,WindSpeedMPH,WindSpeedGustMPH,Humidity,HourlyPrecipIn,Conditions,Clouds,dailyrainin,SoftwareType,DateUTC
2014-03-23 00:00:00,69.7,67.0,29.94,ENE,57,0.0,0.0,91,0.00,,,0.00,VWS V15.00,2014-03-23 05:00:00,
2014-03-23 00:02:00,69.6,66.9,29.94,SE,133,2.0,2.0,91,0.00,,,0.00,VWS V15.00,2014-03-23 05:02:00,
2014-03-23 00:03:00,69.6,66.9,29.94,SE,134,2.0,2.0,91,0.00,,,0.00,VWS V15.00,2014-03-23 05:03:00,
2014-03-23 00:04:00,69.6,66.9,29.95,SE,134,0.0,2.0,91,0.00,,,0.00,VWS V15.00,2014-03-23 05:04:00,
2014-03-23 00:05:00,69.6,66.9,29.95,SE,134,0.0,2.0,91,0.00,,,0.00,VWS V15.00,2014-03-23 05:05:00,
2014-03-23 00:07:00,69.6,67.2,29.95,SE,133,0.0,2.0,92,0.00,,,0.00,VWS V15.00,2014-03-23 05:07:00,
2014-03-23 00:08:00,69.6,67.2,29.95,SE,133,0.0,2.0,92,0.00,,,0.00,VWS V15.00,2014-03-23 05:08:00,
2014-03-23 00:10:00,69.7,67.3,29.95,SE,133,0.0,2.0,92,0.00,,,0.00,VWS V15.00,2014-03-23 05:10:00,
2014-03-23 00:13:00,69.7,67.3,29.95,SE,133,0.0,2.0,92,0.00,,,0.00,VWS V15.00,2014-03-23 05:13:00,
2014-03-23 00:15:00,69.7,67.3,29.95,SE,133,0.0,2.0,92,0.00,,,0.00,VWS V15.00,2014-03-23 05:15:00,
2014-03-23 00:16:00,69.7,67.3,29.95,SE,133,0.0,2.0,92,0.00,,,0.00,VWS V15.00,2014-03-23 05:16:00,
2014-03-23 00:17:00,69.7,67.0,29.95,SE,133,0.0,2.0,91,0.00,,,0.00,VWS V15.00,2014-03-23 05:17:00,
2014-03-23 00:18:00,69.7,67.0,29.95,SE,133,0.0,2.0,91,0.00,,,0.00,VWS V15.00,2014-03-23 05:18:00,
2014-03-23 00:19:00,69.7,67.0,29.95,SE,133,0.0,2.0,91,0.00,,,0.00,VWS V15.00,2014-03-23 05:19:00,
2014-03-23 00:20:00,69.7,67.0,29.95,SE,133,0.0,2.0,91,0.00,,,0.00,VWS V15.00,2014-03-23 05:20:00,
2014-03-23 00:21:00,69.7,67.0,29.95,SE,133,0.0,2.0,91,0.00,,,0.00,VWS V15.00,2014-03-23 05:21:00,
2014-03-23 00:22:00,69.6,66.9,29.95,SE,133,0.0,2.0,91,0.00,,,0.00,VWS V15.00,2014-03-23 05:22:00,
2014-03-23 00:23:00,69.6,66.9,29.95,SE,133,0.0,2.0,91,0.00,,,0.00,VWS V15.00,2014-03-23 05:23:00,
2014-03-23 00:24:00,69.6,66.9,29.95,SE,133,0.0,2.0,91,0.00,,,0.00,VWS V15.00,2014-03-23 05:24:00,
2014-03-23 00:25:00,69.6,66.9,29.95,SE,133,0.0,2.0,91,0.00,,,0.00,VWS V15.00,2014-03-23 05:25:00,
2014-03-23 00:26:00,69.6,66.9,29.95,SE,133,0.0,2.0,91,0.00,,,0.00,VWS V15.00,2014-03-23 05:26:00,
2014-03-23 00:28:00,69.5,66.8,29.95,SE,133,0.0,2.0,91,0.00,,,0.00,VWS V15.00,2014-03-23 05:28:00,
2014-03-23 00:29:00,69.5,67.1,29.95,SE,133,0.0,1.0,92,0.00,,,0.00,VWS V15.00,2014-03-23 05:29:00,
2014-03-23 00:30:00,69.5,67.1,29.95,SE,133,0.0,1.0,92,0.00,,,0.00,VWS V15.00,2014-03-23 05:30:00,
2014-03-23 00:31:00,69.5,67.1,29.95,SE,133,0.0,1.0,92,0.00,,,0.00,VWS V15.00,2014-03-23 05:31:00,
2014-03-23 00:33:00,69.5,67.1,29.95,SE,133,0.0,1.0,92,0.00,,,0.00,VWS V15.00,2014-03-23 05:33:00,
2014-03-23 00:34:00,69.5,67.1,29.95,SE,133,0.0,1.0,92,0.00,,,0.00,VWS V15.00,2014-03-23 05:34:00,
2014-03-23 00:35:00,69.5,67.1,29.95,SE,133,0.0,1.0,92,0.00,,,0.00,VWS V15.00,2014-03-23 05:35:00,
2014-03-23 00:36:00,69.5,67.1,29.95,SE,133,0.0,1.0,92,0.00,,,0.00,VWS V15.00,2014-03-23 05:36:00,
2014-03-23 00:38:00,69.5,67.1,29.95,SE,133,0.0,1.0,92,0.00,,,0.00,VWS V15.00,2014-03-23 05:38:00,
2014-03-23 00:40:00,69.5,67.1,29.95,SE,133,0.0,1.0,92,0.00,,,0.00,VWS V15.00,2014-03-23 05:40:00,
2014-03-23 00:41:00,69.5,67.1,29.95,SE,133,0.0,1.0,92,0.00,,,0.00,VWS V15.00,2014-03-23 05:41:00,
2014-03-23 00:43:00,69.5,67.1,29.95,WNW,300,1.0,3.0,92,0.00,,,0.00,VWS V15.00,2014-03-23 05:43:00,
2014-03-23 00:44:00,69.4,67.0,29.95,WNW,300,0.0,3.0,92,0.00,,,0.00,VWS V15.00,2014-03-23 05:44:00,
2014-03-23 00:45:00,69.3,66.2,29.96,WNW,300,0.0,3.0,90,0.00,,,0.00,VWS V15.00,2014-03-23 05:45:00,
2014-03-23 00:46:00,69.2,66.2,29.96,NNW,343,3.0,3.0,90,0.00,,,0.00,VWS V15.00,2014-03-23 05:46:00,
2014-03-23 00:48:00,68.4,63.7,29.96,NW,320,1.0,3.0,85,0.00,,,0.00,VWS V15.00,2014-03-23 05:48:00,
2014-03-23 00:49:00,68.3,63.6,29.96,NW,320,1.0,3.0,85,0.00,,,0.00,VWS V15.00,2014-03-23 05:49:00,
2014-03-23 00:50:00,68.1,63.1,29.97,NW,320,0.0,3.0,84,0.00,,,0.00,VWS V15.00,2014-03-23 05:50:00,
2014-03-23 00:51:00,67.9,62.9,29.97,NW,320,0.0,3.0,84,0.00,,,0.00,VWS V15.00,2014-03-23 05:51:00,
2014-03-23 00:52:00,67.9,62.9,29.97,NW,320,0.0,3.0,84,0.00,,,0.00,VWS V15.00,2014-03-23 05:52:00,
2014-03-23 00:54:00,67.5,62.8,29.97,NW,320,0.0,3.0,85,0.00,,,0.00,VWS V15.00,2014-03-23 05:54:00,
2014-03-23 00:55:00,67.5,62.8,29.97,NW,321,1.0,3.0,85,0.00,,,0.00,VWS V15.00,2014-03-23 05:55:00,
2014-03-23 00:56:00,67.2,62.2,29.97,NNW,333,0.0,5.0,84,0.00,,,0.00,VWS V15.00,2014-03-23 05:56:00,
2014-03-23 00:57:00,67.1,62.1,29.97,NNW,333,1.0,5.0,84,0.00,,,0.00,VWS V15.00,2014-03-23 05:57:00,
2014-03-23 00:59:00,66.7,61.4,29.97,North,355,2.0,5.0,83,0.00,,,0.00,VWS V15.00,2014-03-23 05:59:00,
2014-03-23 01:00:00,66.6,61.3,29.97,NW,318,3.0,5.0,83,0.00,,,0.00,VWS V15.00,2014-03-23 06:00:00,
2014-03-23 01:02:00,66.2,60.5,29.97,NNE,17,0.0,5.0,82,0.00,,,0.00,VWS V15.00,2014-03-23 06:02:00,
2014-03-23 01:04:00,65.8,60.2,29.97,WNW,286,2.0,5.0,82,0.00,,,0.00,VWS V15.00,2014-03-23 06:04:00,
2014-03-23 01:06:00,65.7,60.1,29.97,WNW,288,0.0,5.0,82,0.00,,,0.00,VWS V15.00,2014-03-23 06:06:00,
2014-03-23 01:07:00,65.5,59.9,29.97,NW,323,0.0,5.0,82,0.00,,,0.00,VWS V15.00,2014-03-23 06:07:00,
2014-03-23 01:09:00,65.3,59.7,29.97,NW,323,0.0,5.0,82,0.00,,,0.00,VWS V15.00,2014-03-23 06:09:00,
2014-03-23 01:11:00,65.2,59.9,29.97,NE,40,0.0,5.0,83,0.00,,,0.00,VWS V15.00,2014-03-23 06:11:00,
2014-03-23 01:12:00,65.1,59.5,29.97,NNE,31,0.0,5.0,82,0.00,,,0.00,VWS V15.00,2014-03-23 06:12:00,
2014-03-23 01:13:00,65.0,59.4,29.97,NNE,19,0.0,5.0,82,0.00,,,0.00,VWS V15.00,2014-03-23 06:13:00,
2014-03-23 01:14:00,65.0,59.4,29.97,North,11,0.0,5.0,82,0.00,,,0.00,VWS V15.00,2014-03-23 06:14:00,
2014-03-23 01:17:00,64.8,59.2,29.97,North,11,0.0,5.0,82,0.00,,,0.00,VWS V15.00,2014-03-23 06:17:00,
2014-03-23 01:18:00,64.8,59.2,29.97,North,11,0.0,5.0,82,0.00,,,0.00,VWS V15.00,2014-03-23 06:18:00,
2014-03-23 01:19:00,64.7,59.1,29.97,North,11,0.0,5.0,82,0.00,,,0.00,VWS V15.00,2014-03-23 06:19:00,
2014-03-23 01:22:00,64.6,59.0,29.98,NNE,27,0.0,5.0,82,0.00,,,0.00,VWS V15.00,2014-03-23 06:22:00,
2014-03-23 01:23:00,64.6,59.0,29.98,NNE,17,0.0,5.0,82,0.00,,,0.00,VWS V15.00,2014-03-23 06:23:00,
2014-03-23 01:24:00,64.5,58.9,29.98,NNE,17,0.0,5.0,82,0.00,,,0.00,VWS V15.00,2014-03-23 06:24:00,
2014-03-23 01:27:00,64.4,58.8,29.98,NNW,344,0.0,9.0,82,0.00,,,0.00,VWS V15.00,2014-03-23 06:27:00,
2014-03-23 01:28:00,64.4,58.8,29.98,NNW,344,0.0,9.0,82,0.00,,,0.00,VWS V15.00,2014-03-23 06:28:00,
2014-03-23 01:29:00,64.3,58.7,29.99,NNW,344,0.0,0.0,82,0.00,,,0.00,VWS V15.00,2014-03-23 06:29:00,
2014-03-23 01:30:00,64.3,58.7,29.99,NNW,344,0.0,2.0,82,0.00,,,0.00,VWS V15.00,2014-03-23 06:30:00,
2014-03-23 01:32:00,64.2,58.6,29.99,NNW,344,0.0,2.0,82,0.00,,,0.00,VWS V15.00,2014-03-23 06:32:00,
2014-03-23 01:33:00,64.2,58.3,29.99,North,360,2.0,2.0,81,0.00,,,0.00,VWS V15.00,2014-03-23 06:33:00,
2014-03-23 01:34:00,64.2,58.3,29.99,North,360,0.0,2.0,81,0.00,,,0.00,VWS V15.00,2014-03-23 06:34:00,
2014-03-23 01:35:00,64.1,58.2,29.99,North,360,0.0,2.0,81,0.00,,,0.00,VWS V15.00,2014-03-23 06:35:00,
2014-03-23 01:36:00,64.1,58.2,29.99,North,360,0.0,2.0,81,0.00,,,0.00,VWS V15.00,2014-03-23 06:36:00,
2014-03-23 01:37:00,64.1,58.2,29.98,North,360,0.0,2.0,81,0.00,,,0.00,VWS V15.00,2014-03-23 06:37:00,
2014-03-23 01:39:00,64.0,58.1,29.98,North,360,0.0,2.0,81,0.00,,,0.00,VWS V15.00,2014-03-23 06:39:00,
2014-03-23 01:40:00,64.0,58.1,29.98,North,360,0.0,2.0,81,0.00,,,0.00,VWS V15.00,2014-03-23 06:40:00,
2014-03-23 01:41:00,63.9,58.0,29.98,NNE,24,0.0,2.0,81,0.00,,,0.00,VWS V15.00,2014-03-23 06:41:00,
2014-03-23 01:43:00,63.9,58.0,29.98,NNE,25,0.0,2.0,81,0.00,,,0.00,VWS V15.00,2014-03-23 06:43:00,
2014-03-23 01:44:00,63.8,57.9,29.98,NNE,30,0.0,2.0,81,0.00,,,0.00,VWS V15.00,2014-03-23 06:44:00,
2014-03-23 01:45:00,63.8,57.9,29.98,NNE,30,0.0,2.0,81,0.00,,,0.00,VWS V15.00,2014-03-23 06:45:00,
2014-03-23 01:46:00,63.7,57.4,29.99,NNE,21,4.0,4.0,80,0.00,,,0.00,VWS V15.00,2014-03-23 06:46:00,
2014-03-23 01:48:00,63.6,57.3,29.99,North,5,0.0,5.0,80,0.00,,,0.00,VWS V15.00,2014-03-23 06:48:00,
2014-03-23 01:49:00,63.5,57.2,29.99,North,5,0.0,5.0,80,0.00,,,0.00,VWS V15.00,2014-03-23 06:49:00,
2014-03-23 01:50:00,63.6,57.3,29.99,North,5,0.0,5.0,80,0.00,,,0.00,VWS V15.00,2014-03-23 06:50:00,
2014-03-23 01:51:00,63.4,57.1,29.98,North,5,0.0,5.0,80,0.00,,,0.00,VWS V15.00,2014-03-23 06:51:00,
2014-03-23 01:53:00,63.4,57.1,29.99,North,5,0.0,5.0,80,0.00,,,0.00,VWS V15.00,2014-03-23 06:53:00,
2014-03-23 01:55:00,63.3,57.0,29.99,North,5,1.0,5.0,80,0.00,,,0.00,VWS V15.00,2014-03-23 06:55:00,
2014-03-23 01:56:00,63.3,57.0,29.99,NE,39,0.0,5.0,80,0.00,,,0.00,VWS V15.00,2014-03-23 06:56:00,
2014-03-23 01:58:00,63.2,56.9,29.99,North,355,0.0,5.0,80,0.00,,,0.00,VWS V15.00,2014-03-23 06:58:00,
2014-03-23 02:00:00,63.1,56.8,29.99,North,355,0.0,1.0,80,0.00,,,0.00,VWS V15.00,2014-03-23 07:00:00,
2014-03-23 02:01:00,63.1,56.8,29.99,North,355,0.0,1.0,80,0.00,,,0.00,VWS V15.00,2014-03-23 07:01:00,
2014-03-23 02:03:00,63.1,56.8,29.99,North,355,0.0,1.0,80,0.00,,,0.00,VWS V15.00,2014-03-23 07:03:00,
2014-03-23 02:04:00,63.0,56.7,29.99,North,355,0.0,1.0,80,0.00,,,0.00,VWS V15.00,2014-03-23 07:04:00,
2014-03-23 02:05:00,63.0,56.7,29.99,North,355,0.0,1.0,80,0.00,,,0.00,VWS V15.00,2014-03-23 07:05:00,
2014-03-23 02:06:00,63.0,56.7,29.99,NNW,337,0.0,2.0,80,0.00,,,0.00,VWS V15.00,2014-03-23 07:06:00,
2014-03-23 02:07:00,63.0,56.7,29.99,NNW,340,0.0,3.0,80,0.00,,,0.00,VWS V15.00,2014-03-23 07:07:00,
2014-03-23 02:09:00,62.9,56.6,30.00,ENE,62,0.0,3.0,80,0.00,,,0.00,VWS V15.00,2014-03-23 07:09:00,
2014-03-23 02:10:00,62.9,56.6,30.00,ENE,62,0.0,3.0,80,0.00,,,0.00,VWS V15.00,2014-03-23 07:10:00,
2014-03-23 02:11:00,62.9,56.6,30.00,NE,53,0.0,3.0,80,0.00,,,0.00,VWS V15.00,2014-03-23 07:11:00,
2014-03-23 02:12:00,62.8,56.5,30.00,North,360,1.0,3.0,80,0.00,,,0.00,VWS V15.00,2014-03-23 07:12:00,
2014-03-23 02:14:00,62.8,56.2,30.00,North,360,0.0,3.0,79,0.00,,,0.00,VWS V15.00,2014-03-23 07:14:00,
2014-03-23 02:15:00,62.8,56.5,30.00,North,360,0.0,3.0,80,0.00,,,0.00,VWS V15.00,2014-03-23 07:15:00,
2014-03-23 02:16:00,62.8,56.2,30.00,North,360,0.0,3.0,79,0.00,,,0.00,VWS V15.00,2014-03-23 07:16:00,
2014-03-23 02:17:00,62.7,56.5,30.00,North,360,0.0,3.0,80,0.00,,,0.00,VWS V15.00,2014-03-23 07:17:00,
2014-03-23 02:20:00,62.6,56.0,29.99,WNW,296,1.0,3.0,79,0.00,,,0.00,VWS V15.00,2014-03-23 07:20:00,
2014-03-23 02:22:00,62.6,56.0,30.00,NW,311,0.0,3.0,79,0.00,,,0.00,VWS V15.00,2014-03-23 07:22:00,
2014-03-23 02:23:00,62.6,56.0,30.00,NW,312,1.0,3.0,79,0.00,,,0.00,VWS V15.00,2014-03-23 07:23:00,
2014-03-23 02:25:00,62.5,55.9,30.00,NW,323,2.0,3.0,79,0.00,,,0.00,VWS V15.00,2014-03-23 07:25:00,
2014-03-23 02:27:00,62.4,55.8,30.00,NW,323,0.0,3.0,79,0.00,,,0.00,VWS V15.00,2014-03-23 07:27:00,
2014-03-23 02:28:00,62.4,55.8,30.00,North,5,0.0,5.0,79,0.00,,,0.00,VWS V15.00,2014-03-23 07:28:00,
2014-03-23 02:30:00,62.3,55.4,30.00,North,360,0.0,3.0,78,0.00,,,0.00,VWS V15.00,2014-03-23 07:30:00,
2014-03-23 02:31:00,62.2,55.3,30.00,NNE,17,0.0,3.0,78,0.00,,,0.00,VWS V15.00,2014-03-23 07:31:00,
2014-03-23 02:32:00,62.2,55.3,30.00,NNE,13,0.0,3.0,78,0.00,,,0.00,VWS V15.00,2014-03-23 07:32:00,
2014-03-23 02:33:00,62.2,55.6,30.00,North,349,0.0,4.0,79,0.00,,,0.00,VWS V15.00,2014-03-23 07:33:00,
2014-03-23 02:35:00,62.1,55.2,30.00,North,360,0.0,4.0,78,0.00,,,0.00,VWS V15.00,2014-03-23 07:35:00,
2014-03-23 02:36:00,62.1,55.2,30.00,North,360,0.0,4.0,78,0.00,,,0.00,VWS V15.00,2014-03-23 07:36:00,
2014-03-23 02:37:00,62.1,55.2,30.00,North,360,0.0,4.0,78,0.00,,,0.00,VWS V15.00,2014-03-23 07:37:00,
2014-03-23 02:39:00,62.0,55.1,30.00,NNE,13,0.0,4.0,78,0.00,,,0.00,VWS V15.00,2014-03-23 07:39:00,
2014-03-23 02:41:00,62.0,55.4,30.00,NNE,13,0.0,4.0,79,0.00,,,0.00,VWS V15.00,2014-03-23 07:41:00,
2014-03-23 02:42:00,62.0,55.1,30.00,NNW,346,0.0,4.0,78,0.00,,,0.00,VWS V15.00,2014-03-23 07:42:00,
2014-03-23 02:43:00,61.9,55.0,30.00,NNW,346,0.0,4.0,78,0.00,,,0.00,VWS V15.00,2014-03-23 07:43:00,
2014-03-23 02:44:00,61.9,55.0,30.00,NNW,346,1.0,4.0,78,0.00,,,0.00,VWS V15.00,2014-03-23 07:44:00,
2014-03-23 02:46:00,61.8,54.9,30.00,NNW,342,0.0,4.0,78,0.00,,,0.00,VWS V15.00,2014-03-23 07:46:00,
2014-03-23 02:47:00,61.8,54.9,30.00,NNW,342,0.0,4.0,78,0.00,,,0.00,VWS V15.00,2014-03-23 07:47:00,
2014-03-23 02:48:00,61.8,54.9,30.01,NNW,342,0.0,4.0,78,0.00,,,0.00,VWS V15.00,2014-03-23 07:48:00,
2014-03-23 02:50:00,61.8,54.9,30.01,North,355,1.0,4.0,78,0.00,,,0.00,VWS V15.00,2014-03-23 07:50:00,
2014-03-23 02:51:00,61.7,54.4,30.01,North,355,0.0,4.0,77,0.00,,,0.00,VWS V15.00,2014-03-23 07:51:00,
2014-03-23 02:53:00,61.6,54.3,30.01,North,355,0.0,4.0,77,0.00,,,0.00,VWS V15.00,2014-03-23 07:53:00,
2014-03-23 02:54:00,61.6,54.3,30.01,NNW,343,1.0,4.0,77,0.00,,,0.00,VWS V15.00,2014-03-23 07:54:00,
2014-03-23 02:55:00,61.6,54.3,30.01,NNW,343,0.0,4.0,77,0.00,,,0.00,VWS V15.00,2014-03-23 07:55:00,
2014-03-23 02:56:00,61.5,54.2,30.01,NNW,343,0.0,4.0,77,0.00,,,0.00,VWS V15.00,2014-03-23 07:56:00,
2014-03-23 02:58:00,61.5,54.2,30.01,NNW,348,1.0,4.0,77,0.00,,,0.00,VWS V15.00,2014-03-23 07:58:00,
2014-03-23 02:59:00,61.5,54.2,30.01,NNW,348,1.0,4.0,77,0.00,,,0.00,VWS V15.00,2014-03-23 07:59:00,
2014-03-23 03:00:00,61.5,54.2,30.01,NNE,17,0.0,3.0,77,0.00,,,0.00,VWS V15.00,2014-03-23 08:00:00,
2014-03-23 03:01:00,61.4,54.1,30.02,NNE,17,1.0,3.0,77,0.00,,,0.00,VWS V15.00,2014-03-23 08:01:00,
2014-03-23 03:02:00,61.4,54.1,30.01,WSW,244,0.0,3.0,77,0.00,,,0.00,VWS V15.00,2014-03-23 08:02:00,
2014-03-23 03:03:00,61.4,54.1,30.01,NE,40,1.0,3.0,77,0.00,,,0.00,VWS V15.00,2014-03-23 08:03:00,
2014-03-23 03:04:00,61.4,54.1,30.01,NE,39,1.0,3.0,77,0.00,,,0.00,VWS V15.00,2014-03-23 08:04:00,
2014-03-23 03:05:00,61.3,54.0,30.02,NNW,331,0.0,3.0,77,0.00,,,0.00,VWS V15.00,2014-03-23 08:05:00,
2014-03-23 03:06:00,61.3,54.4,30.01,NNW,331,0.0,3.0,78,0.00,,,0.00,VWS V15.00,2014-03-23 08:06:00,
2014-03-23 03:07:00,61.3,54.4,30.01,NNW,331,0.0,3.0,78,0.00,,,0.00,VWS V15.00,2014-03-23 08:07:00,
2014-03-23 03:08:00,61.3,54.4,30.01,NNW,337,0.0,3.0,78,0.00,,,0.00,VWS V15.00,2014-03-23 08:08:00,
2014-03-23 03:10:00,61.3,54.4,30.01,North,360,0.0,3.0,78,0.00,,,0.00,VWS V15.00,2014-03-23 08:10:00,
2014-03-23 03:11:00,61.2,54.3,30.02,North,355,0.0,3.0,78,0.00,,,0.00,VWS V15.00,2014-03-23 08:11:00,
2014-03-23 03:12:00,61.2,54.3,30.02,North,355,0.0,3.0,78,0.00,,,0.00,VWS V15.00,2014-03-23 08:12:00,
2014-03-23 03:13:00,61.2,54.3,30.02,NE,36,0.0,3.0,78,0.00,,,0.00,VWS V15.00,2014-03-23 08:13:00,
2014-03-23 03:15:00,61.1,54.2,30.02,NNE,24,0.0,3.0,78,0.00,,,0.00,VWS V15.00,2014-03-23 08:15:00,
2014-03-23 03:16:00,61.1,54.2,30.02,NNE,25,0.0,3.0,78,0.00,,,0.00,VWS V15.00,2014-03-23 08:16:00,
2014-03-23 03:17:00,61.1,54.2,30.02,NNE,25,0.0,3.0,78,0.00,,,0.00,VWS V15.00,2014-03-23 08:17:00,
2014-03-23 03:19:00,61.1,54.2,30.02,North,350,0.0,3.0,78,0.00,,,0.00,VWS V15.00,2014-03-23 08:19:00,
2014-03-23 03:20:00,61.1,54.2,30.02,NW,319,1.0,4.0,78,0.00,,,0.00,VWS V15.00,2014-03-23 08:20:00,
2014-03-23 03:21:00,61.0,54.1,30.01,NW,322,0.0,4.0,78,0.00,,,0.00,VWS V15.00,2014-03-23 08:21:00,
2014-03-23 03:22:00,61.0,54.1,30.01,NW,322,0.0,4.0,78,0.00,,,0.00,VWS V15.00,2014-03-23 08:22:00,
2014-03-23 03:23:00,61.0,54.1,30.01,North,355,2.0,4.0,78,0.00,,,0.00,VWS V15.00,2014-03-23 08:23:00,
2014-03-23 03:24:00,61.0,54.1,30.01,North,355,2.0,4.0,78,0.00,,,0.00,VWS V15.00,2014-03-23 08:24:00,
2014-03-23 03:25:00,60.9,54.0,30.01,NNE,26,1.0,4.0,78,0.00,,,0.00,VWS V15.00,2014-03-23 08:25:00,
2014-03-23 03:27:00,60.9,54.0,30.01,NW,321,1.0,4.0,78,0.00,,,0.00,VWS V15.00,2014-03-23 08:27:00,
2014-03-23 03:28:00,60.9,54.0,30.01,NW,321,1.0,4.0,78,0.00,,,0.00,VWS V15.00,2014-03-23 08:28:00,
2014-03-23 03:29:00,60.9,54.0,30.01,NNW,337,0.0,3.0,78,0.00,,,0.00,VWS V15.00,2014-03-23 08:29:00,
2014-03-23 03:31:00,60.9,54.0,30.02,NNW,333,0.0,3.0,78,0.00,,,0.00,VWS V15.00,2014-03-23 08:31:00,
2014-03-23 03:32:00,60.9,54.0,30.02,NNW,331,0.0,3.0,78,0.00,,,0.00,VWS V15.00,2014-03-23 08:32:00,
2014-03-23 03:33:00,60.9,54.0,30.02,NNW,331,0.0,3.0,78,0.00,,,0.00,VWS V15.00,2014-03-23 08:33:00,
2014-03-23 03:34:00,60.8,53.9,30.02,North,351,1.0,4.0,78,0.00,,,0.00,VWS V15.00,2014-03-23 08:34:00,
2014-03-23 03:36:00,60.8,53.9,30.02,NW,319,0.0,4.0,78,0.00,,,0.00,VWS V15.00,2014-03-23 08:36:00,
2014-03-23 03:38:00,60.8,53.9,30.02,NW,319,0.0,4.0,78,0.00,,,0.00,VWS V15.00,2014-03-23 08:38:00,
2014-03-23 03:39:00,60.8,53.9,30.02,NW,319,0.0,4.0,78,0.00,,,0.00,VWS V15.00,2014-03-23 08:39:00,
2014-03-23 03:40:00,60.8,53.9,30.02,NW,322,0.0,4.0,78,0.00,,,0.00,VWS V15.00,2014-03-23 08:40:00,
2014-03-23 03:41:00,60.8,53.9,30.02,NNW,343,1.0,4.0,78,0.00,,,0.00,VWS V15.00,2014-03-23 08:41:00,
2014-03-23 03:43:00,60.7,53.8,30.02,NNW,342,0.0,4.0,78,0.00,,,0.00,VWS V15.00,2014-03-23 08:43:00,
2014-03-23 03:44:00,60.7,53.8,30.02,NNW,343,1.0,4.0,78,0.00,,,0.00,VWS V15.00,2014-03-23 08:44:00,
2014-03-23 03:45:00,60.7,53.8,30.02,NNW,343,0.0,4.0,78,0.00,,,0.00,VWS V15.00,2014-03-23 08:45:00,
2014-03-23 03:46:00,60.7,53.8,30.02,NNW,343,0.0,4.0,78,0.00,,,0.00,VWS V15.00,2014-03-23 08:46:00,
2014-03-23 03:49:00,60.6,53.7,30.01,NNW,344,1.0,4.0,78,0.00,,,0.00,VWS V15.00,2014-03-23 08:49:00,
2014-03-23 03:50:00,60.6,53.7,30.01,North,350,0.0,4.0,78,0.00,,,0.00,VWS V15.00,2014-03-23 08:50:00,
2014-03-23 03:51:00,60.6,53.7,30.01,North,350,0.0,4.0,78,0.00,,,0.00,VWS V15.00,2014-03-23 08:51:00,
2014-03-23 03:54:00,60.5,54.0,30.01,North,350,0.0,4.0,79,0.00,,,0.00,VWS V15.00,2014-03-23 08:54:00,
2014-03-23 03:55:00,60.5,53.6,30.01,North,355,0.0,4.0,78,0.00,,,0.00,VWS V15.00,2014-03-23 08:55:00,
2014-03-23 03:56:00,60.4,53.9,30.01,North,349,0.0,4.0,79,0.00,,,0.00,VWS V15.00,2014-03-23 08:56:00,
2014-03-23 03:59:00,60.4,53.9,30.02,NW,320,0.0,1.0,79,0.00,,,0.00,VWS V15.00,2014-03-23 08:59:00,
2014-03-23 04:00:00,60.3,53.8,30.01,NW,320,0.0,1.0,79,0.00,,,0.00,VWS V15.00,2014-03-23 09:00:00,
2014-03-23 04:01:00,60.3,53.8,30.02,NW,320,0.0,2.0,79,0.00,,,0.00,VWS V15.00,2014-03-23 09:01:00,
2014-03-23 04:02:00,60.3,53.8,30.02,NW,320,0.0,2.0,79,0.00,,,0.00,VWS V15.00,2014-03-23 09:02:00,
2014-03-23 04:04:00,60.2,53.7,30.01,NW,320,0.0,2.0,79,0.00,,,0.00,VWS V15.00,2014-03-23 09:04:00,
2014-03-23 04:05:00,60.2,53.7,30.01,NNW,339,0.0,4.0,79,0.00,,,0.00,VWS V15.00,2014-03-23 09:05:00,
2014-03-23 04:06:00,60.2,53.7,30.01,East,79,0.0,4.0,79,0.00,,,0.00,VWS V15.00,2014-03-23 09:06:00,
2014-03-23 04:07:00,60.2,53.7,30.01,ENE,78,1.0,4.0,79,0.00,,,0.00,VWS V15.00,2014-03-23 09:07:00,
2014-03-23 04:09:00,60.2,53.7,30.01,ENE,78,0.0,4.0,79,0.00,,,0.00,VWS V15.00,2014-03-23 09:09:00,
2014-03-23 04:10:00,60.1,53.6,30.01,North,5,2.0,4.0,79,0.00,,,0.00,VWS V15.00,2014-03-23 09:10:00,
2014-03-23 04:11:00,60.1,53.6,30.01,North,5,0.0,4.0,79,0.00,,,0.00,VWS V15.00,2014-03-23 09:11:00,
2014-03-23 04:12:00,60.1,53.6,30.01,North,5,0.0,4.0,79,0.00,,,0.00,VWS V15.00,2014-03-23 09:12:00,
2014-03-23 04:14:00,60.1,53.9,30.01,North,5,1.0,4.0,80,0.00,,,0.00,VWS V15.00,2014-03-23 09:14:00,
2014-03-23 04:15:00,60.1,53.6,30.01,ESE,105,2.0,4.0,79,0.00,,,0.00,VWS V15.00,2014-03-23 09:15:00,
2014-03-23 04:16:00,60.0,53.5,30.01,NE,44,3.0,5.0,79,0.00,,,0.00,VWS V15.00,2014-03-23 09:16:00,
2014-03-23 04:18:00,60.0,53.5,30.01,North,360,0.0,5.0,79,0.00,,,0.00,VWS V15.00,2014-03-23 09:18:00,
2014-03-23 04:19:00,60.0,53.8,30.01,NW,323,0.0,5.0,80,0.00,,,0.00,VWS V15.00,2014-03-23 09:19:00,
2014-03-23 04:20:00,60.0,53.8,30.01,NW,323,1.0,5.0,80,0.00,,,0.00,VWS V15.00,2014-03-23 09:20:00,
2014-03-23 04:21:00,60.0,53.8,30.01,NW,323,0.0,5.0,80,0.00,,,0.00,VWS V15.00,2014-03-23 09:21:00,
2014-03-23 04:23:00,59.9,53.7,30.01,NE,54,0.0,5.0,80,0.00,,,0.00,VWS V15.00,2014-03-23 09:23:00,
2014-03-23 04:25:00,59.9,53.7,30.01,North,11,2.0,5.0,80,0.00,,,0.00,VWS V15.00,2014-03-23 09:25:00,
2014-03-23 04:26:00,59.9,53.7,30.01,North,11,0.0,5.0,80,0.00,,,0.00,VWS V15.00,2014-03-23 09:26:00,
2014-03-23 04:28:00,59.9,53.7,30.01,North,11,0.0,5.0,80,0.00,,,0.00,VWS V15.00,2014-03-23 09:28:00,
2014-03-23 04:30:00,59.9,53.7,30.01,NE,45,3.0,3.0,80,0.00,,,0.00,VWS V15.00,2014-03-23 09:30:00,
2014-03-23 04:31:00,59.8,53.6,30.01,NE,43,0.0,3.0,80,0.00,,,0.00,VWS V15.00,2014-03-23 09:31:00,
2014-03-23 04:33:00,59.8,53.6,30.01,NE,36,2.0,3.0,80,0.00,,,0.00,VWS V15.00,2014-03-23 09:33:00,
2014-03-23 04:35:00,59.8,53.6,30.01,NNE,15,0.0,3.0,80,0.00,,,0.00,VWS V15.00,2014-03-23 09:35:00,
2014-03-23 04:36:00,59.8,53.6,30.01,NNE,15,0.0,3.0,80,0.00,,,0.00,VWS V15.00,2014-03-23 09:36:00,
2014-03-23 04:38:00,59.7,53.5,30.01,NNE,15,0.0,3.0,80,0.00,,,0.00,VWS V15.00,2014-03-23 09:38:00,
2014-03-23 04:39:00,59.7,53.5,30.01,NNE,15,0.0,3.0,80,0.00,,,0.00,VWS V15.00,2014-03-23 09:39:00,
2014-03-23 04:40:00,59.6,53.8,30.01,NNE,15,0.0,3.0,81,0.00,,,0.00,VWS V15.00,2014-03-23 09:40:00,
2014-03-23 04:42:00,59.6,53.8,30.01,NNE,15,0.0,3.0,81,0.00,,,0.00,VWS V15.00,2014-03-23 09:42:00,
2014-03-23 04:43:00,59.6,53.8,30.01,NNE,15,0.0,3.0,81,0.00,,,0.00,VWS V15.00,2014-03-23 09:43:00,
2014-03-23 04:44:00,59.6,53.8,30.01,NNE,15,0.0,3.0,81,0.00,,,0.00,VWS V15.00,2014-03-23 09:44:00,
2014-03-23 04:45:00,59.6,53.8,30.01,NNE,15,0.0,3.0,81,0.00,,,0.00,VWS V15.00,2014-03-23 09:45:00,
2014-03-23 04:46:00,59.6,53.8,30.01,NNE,15,1.0,3.0,81,0.00,,,0.00,VWS V15.00,2014-03-23 09:46:00,
2014-03-23 04:48:00,59.5,53.7,30.01,ENE,57,1.0,3.0,81,0.00,,,0.00,VWS V15.00,2014-03-23 09:48:00,
2014-03-23 04:49:00,59.5,53.7,30.01,NNE,31,2.0,3.0,81,0.00,,,0.00,VWS V15.00,2014-03-23 09:49:00,
2014-03-23 04:51:00,59.5,53.7,30.01,North,5,0.0,3.0,81,0.00,,,0.00,VWS V15.00,2014-03-23 09:51:00,
2014-03-23 04:53:00,59.5,53.7,30.01,North,5,1.0,3.0,81,0.00,,,0.00,VWS V15.00,2014-03-23 09:53:00,
2014-03-23 04:54:00,59.5,54.0,30.00,North,9,2.0,3.0,82,0.00,,,0.00,VWS V15.00,2014-03-23 09:54:00,
2014-03-23 04:55:00,59.5,54.0,30.00,NNE,17,0.0,3.0,82,0.00,,,0.00,VWS V15.00,2014-03-23 09:55:00,
2014-03-23 04:56:00,59.5,54.0,30.00,NNW,345,1.0,4.0,82,0.00,,,0.00,VWS V15.00,2014-03-23 09:56:00,
2014-03-23 04:58:00,59.4,53.9,30.00,NNW,344,0.0,4.0,82,0.00,,,0.00,VWS V15.00,2014-03-23 09:58:00,
2014-03-23 04:59:00,59.4,53.9,30.00,NNW,344,0.0,1.0,82,0.00,,,0.00,VWS V15.00,2014-03-23 09:59:00,
2014-03-23 05:00:00,59.4,53.9,30.01,NNW,344,0.0,1.0,82,0.00,,,0.00,VWS V15.00,2014-03-23 10:00:00,
2014-03-23 05:01:00,59.4,53.9,30.01,NNW,344,0.0,1.0,82,0.00,,,0.00,VWS V15.00,2014-03-23 10:01:00,
2014-03-23 05:03:00,59.4,53.9,30.01,ENE,59,0.0,3.0,82,0.00,,,0.00,VWS V15.00,2014-03-23 10:03:00,
2014-03-23 05:04:00,59.4,53.9,30.01,ENE,57,1.0,3.0,82,0.00,,,0.00,VWS V15.00,2014-03-23 10:04:00,
2014-03-23 05:05:00,59.4,53.9,30.02,NNE,30,0.0,3.0,82,0.00,,,0.00,VWS V15.00,2014-03-23 10:05:00,
2014-03-23 05:06:00,59.4,54.2,30.02,NNW,338,1.0,3.0,83,0.00,,,0.00,VWS V15.00,2014-03-23 10:06:00,
2014-03-23 05:09:00,59.4,53.9,30.02,NNW,338,0.0,3.0,82,0.00,,,0.00,VWS V15.00,2014-03-23 10:09:00,
2014-03-23 05:10:00,59.4,54.2,30.02,NNW,338,0.0,3.0,83,0.00,,,0.00,VWS V15.00,2014-03-23 10:10:00,
2014-03-23 05:11:00,59.4,53.9,30.02,WNW,296,2.0,3.0,82,0.00,,,0.00,VWS V15.00,2014-03-23 10:11:00,
2014-03-23 05:14:00,59.3,54.2,30.02,North,11,0.0,3.0,83,0.00,,,0.00,VWS V15.00,2014-03-23 10:14:00,
2014-03-23 05:15:00,59.3,54.2,30.02,North,11,1.0,3.0,83,0.00,,,0.00,VWS V15.00,2014-03-23 10:15:00,
2014-03-23 05:16:00,59.3,54.2,30.02,NNW,334,0.0,3.0,83,0.00,,,0.00,VWS V15.00,2014-03-23 10:16:00,
2014-03-23 05:17:00,59.3,54.2,30.02,NNW,334,0.0,3.0,83,0.00,,,0.00,VWS V15.00,2014-03-23 10:17:00,
2014-03-23 05:19:00,59.3,54.2,30.02,NNW,346,0.0,3.0,83,0.00,,,0.00,VWS V15.00,2014-03-23 10:19:00,
2014-03-23 05:20:00,59.3,54.2,30.02,NNW,346,0.0,3.0,83,0.00,,,0.00,VWS V15.00,2014-03-23 10:20:00,
2014-03-23 05:21:00,59.3,54.2,30.02,NNW,346,0.0,3.0,83,0.00,,,0.00,VWS V15.00,2014-03-23 10:21:00,
2014-03-23 05:22:00,59.3,54.2,30.02,NNW,346,0.0,3.0,83,0.00,,,0.00,VWS V15.00,2014-03-23 10:22:00,
2014-03-23 05:25:00,59.3,54.2,30.02,WNW,297,0.0,4.0,83,0.00,,,0.00,VWS V15.00,2014-03-23 10:25:00,
2014-03-23 05:26:00,59.3,54.2,30.02,WNW,299,2.0,4.0,83,0.00,,,0.00,VWS V15.00,2014-03-23 10:26:00,
2014-03-23 05:27:00,59.3,54.2,30.02,NW,308,1.0,4.0,83,0.00,,,0.00,VWS V15.00,2014-03-23 10:27:00,
2014-03-23 05:30:00,59.2,54.0,30.03,SSW,202,1.0,2.0,83,0.00,,,0.00,VWS V15.00,2014-03-23 10:30:00,
2014-03-23 05:31:00,59.2,54.0,30.03,SSW,202,0.0,2.0,83,0.00,,,0.00,VWS V15.00,2014-03-23 10:31:00,
2014-03-23 05:32:00,59.2,54.0,30.03,North,355,2.0,4.0,83,0.00,,,0.00,VWS V15.00,2014-03-23 10:32:00,
2014-03-23 05:35:00,59.2,54.0,30.03,NNE,18,0.0,4.0,83,0.00,,,0.00,VWS V15.00,2014-03-23 10:35:00,
2014-03-23 05:36:00,59.2,54.0,30.03,NNE,19,0.0,4.0,83,0.00,,,0.00,VWS V15.00,2014-03-23 10:36:00,
2014-03-23 05:37:00,59.2,54.0,30.03,North,9,0.0,4.0,83,0.00,,,0.00,VWS V15.00,2014-03-23 10:37:00,
2014-03-23 05:38:00,59.2,54.0,30.03,North,9,0.0,4.0,83,0.00,,,0.00,VWS V15.00,2014-03-23 10:38:00,
2014-03-23 05:40:00,59.1,54.0,30.03,North,5,3.0,5.0,83,0.00,,,0.00,VWS V15.00,2014-03-23 10:40:00,
2014-03-23 05:41:00,59.1,54.0,30.03,North,5,1.0,5.0,83,0.00,,,0.00,VWS V15.00,2014-03-23 10:41:00,
2014-03-23 05:42:00,59.1,54.0,30.03,North,5,2.0,5.0,83,0.00,,,0.00,VWS V15.00,2014-03-23 10:42:00,
2014-03-23 05:43:00,59.1,54.0,30.03,North,5,1.0,5.0,83,0.00,,,0.00,VWS V15.00,2014-03-23 10:43:00,
2014-03-23 05:46:00,59.1,54.0,30.03,North,355,0.0,5.0,83,0.00,,,0.00,VWS V15.00,2014-03-23 10:46:00,
2014-03-23 05:47:00,59.1,54.0,30.03,North,355,1.0,5.0,83,0.00,,,0.00,VWS V15.00,2014-03-23 10:47:00,
2014-03-23 05:48:00,59.1,54.0,30.03,North,355,0.0,5.0,83,0.00,,,0.00,VWS V15.00,2014-03-23 10:48:00,
2014-03-23 05:49:00,59.1,54.0,30.03,North,355,3.0,5.0,83,0.00,,,0.00,VWS V15.00,2014-03-23 10:49:00,
2014-03-23 05:51:00,59.1,54.0,30.03,North,360,0.0,5.0,83,0.00,,,0.00,VWS V15.00,2014-03-23 10:51:00,
2014-03-23 05:52:00,59.1,54.0,30.03,North,360,0.0,5.0,83,0.00,,,0.00,VWS V15.00,2014-03-23 10:52:00,
2014-03-23 05:53:00,59.1,54.0,30.03,North,360,0.0,5.0,83,0.00,,,0.00,VWS V15.00,2014-03-23 10:53:00,
2014-03-23 05:54:00,59.1,54.0,30.03,ENE,71,1.0,5.0,83,0.00,,,0.00,VWS V15.00,2014-03-23 10:54:00,
2014-03-23 05:56:00,59.0,53.8,30.03,WNW,289,2.0,5.0,83,0.00,,,0.00,VWS V15.00,2014-03-23 10:56:00,
2014-03-23 05:57:00,59.0,53.8,30.03,WNW,292,0.0,5.0,83,0.00,,,0.00,VWS V15.00,2014-03-23 10:57:00,
2014-03-23 05:58:00,59.0,53.8,30.03,NW,315,0.0,5.0,83,0.00,,,0.00,VWS V15.00,2014-03-23 10:58:00,
2014-03-23 05:59:00,59.0,53.8,30.03,NW,315,0.0,0.0,83,0.00,,,0.00,VWS V15.00,2014-03-23 10:59:00,
2014-03-23 06:02:00,59.0,53.8,30.03,NNW,331,0.0,6.0,83,0.00,,,0.00,VWS V15.00,2014-03-23 11:02:00,
2014-03-23 06:03:00,59.0,53.8,30.04,NE,49,0.0,6.0,83,0.00,,,0.00,VWS V15.00,2014-03-23 11:03:00,
2014-03-23 06:04:00,59.0,53.8,30.04,NE,49,0.0,6.0,83,0.00,,,0.00,VWS V15.00,2014-03-23 11:04:00,
2014-03-23 06:07:00,58.9,53.1,30.04,North,355,1.0,11.0,81,0.00,,,0.00,VWS V15.00,2014-03-23 11:07:00,
2014-03-23 06:08:00,58.9,53.1,30.04,North,355,0.0,11.0,81,0.00,,,0.00,VWS V15.00,2014-03-23 11:08:00,
2014-03-23 06:09:00,58.9,53.1,30.05,NNW,344,0.0,11.0,81,0.00,,,0.00,VWS V15.00,2014-03-23 11:09:00,
2014-03-23 06:11:00,58.9,53.1,30.05,NE,44,1.0,11.0,81,0.00,,,0.00,VWS V15.00,2014-03-23 11:11:00,
2014-03-23 06:12:00,58.9,52.8,30.04,North,360,0.0,11.0,80,0.00,,,0.00,VWS V15.00,2014-03-23 11:12:00,
2014-03-23 06:13:00,58.9,52.8,30.04,North,5,1.0,11.0,80,0.00,,,0.00,VWS V15.00,2014-03-23 11:13:00,
2014-03-23 06:14:00,58.9,52.8,30.04,North,5,1.0,11.0,80,0.00,,,0.00,VWS V15.00,2014-03-23 11:14:00,
2014-03-23 06:16:00,58.9,52.8,30.05,NNW,337,0.0,11.0,80,0.00,,,0.00,VWS V15.00,2014-03-23 11:16:00,
2014-03-23 06:18:00,58.9,52.4,30.05,NNW,338,0.0,11.0,79,0.00,,,0.00,VWS V15.00,2014-03-23 11:18:00,
2014-03-23 06:19:00,58.9,52.4,30.05,NNW,342,2.0,11.0,79,0.00,,,0.00,VWS V15.00,2014-03-23 11:19:00,
2014-03-23 06:20:00,58.9,52.4,30.05,NNW,342,3.0,11.0,79,0.00,,,0.00,VWS V15.00,2014-03-23 11:20:00,
2014-03-23 06:21:00,58.9,52.4,30.05,NW,307,3.0,11.0,79,0.00,,,0.00,VWS V15.00,2014-03-23 11:21:00,
2014-03-23 06:23:00,58.9,52.1,30.05,NNW,329,1.0,11.0,78,0.00,,,0.00,VWS V15.00,2014-03-23 11:23:00,
2014-03-23 06:24:00,58.9,51.7,30.05,NNW,329,0.0,11.0,77,0.00,,,0.00,VWS V15.00,2014-03-23 11:24:00,
2014-03-23 06:25:00,58.9,51.7,30.05,NNE,23,5.0,11.0,77,0.00,,,0.00,VWS V15.00,2014-03-23 11:25:00,
2014-03-23 06:26:00,58.8,51.6,30.05,South,173,2.0,11.0,77,0.00,,,0.00,VWS V15.00,2014-03-23 11:26:00,
2014-03-23 06:27:00,58.7,51.2,30.05,North,360,0.0,11.0,76,0.00,,,0.00,VWS V15.00,2014-03-23 11:27:00,
2014-03-23 06:28:00,58.7,50.8,30.05,North,11,2.0,4.0,75,0.00,,,0.00,VWS V15.00,2014-03-23 11:28:00,
2014-03-23 06:29:00,58.7,50.8,30.05,North,5,3.0,4.0,75,0.00,,,0.00,VWS V15.00,2014-03-23 11:29:00,
2014-03-23 06:30:00,58.7,50.8,30.05,North,9,1.0,4.0,75,0.00,,,0.00,VWS V15.00,2014-03-23 11:30:00,
2014-03-23 06:31:00,58.6,51.1,30.05,NE,38,0.0,4.0,76,0.00,,,0.00,VWS V15.00,2014-03-23 11:31:00,
2014-03-23 06:33:00,58.6,51.1,30.05,North,10,1.0,4.0,76,0.00,,,0.00,VWS V15.00,2014-03-23 11:33:00,
2014-03-23 06:34:00,58.5,50.2,30.05,NNW,342,0.0,6.0,74,0.00,,,0.00,VWS V15.00,2014-03-23 11:34:00,
2014-03-23 06:35:00,58.5,50.2,30.05,NW,319,1.0,6.0,74,0.00,,,0.00,VWS V15.00,2014-03-23 11:35:00,
2014-03-23 06:37:00,58.5,50.2,30.05,North,355,0.0,6.0,74,0.00,,,0.00,VWS V15.00,2014-03-23 11:37:00,
2014-03-23 06:38:00,58.5,50.2,30.05,NW,314,3.0,6.0,74,0.00,,,0.00,VWS V15.00,2014-03-23 11:38:00,
2014-03-23 06:39:00,58.4,50.2,30.05,SE,136,0.0,6.0,74,0.00,,,0.00,VWS V15.00,2014-03-23 11:39:00,
2014-03-23 06:40:00,58.4,50.2,30.05,North,5,0.0,6.0,74,0.00,,,0.00,VWS V15.00,2014-03-23 11:40:00,
2014-03-23 06:43:00,58.4,50.5,30.06,NNW,345,0.0,6.0,75,0.00,,,0.00,VWS V15.00,2014-03-23 11:43:00,
2014-03-23 06:45:00,58.3,50.4,30.06,North,349,4.0,6.0,75,0.00,,,0.00,VWS V15.00,2014-03-23 11:45:00,
2014-03-23 06:46:00,58.3,50.4,30.06,North,355,3.0,6.0,75,0.00,,,0.00,VWS V15.00,2014-03-23 11:46:00,
2014-03-23 06:48:00,58.3,50.4,30.06,North,360,2.0,6.0,75,0.00,,,0.00,VWS V15.00,2014-03-23 11:48:00,
2014-03-23 06:50:00,58.2,50.0,30.07,NNE,24,2.0,7.0,74,0.00,,,0.00,VWS V15.00,2014-03-23 11:50:00,
2014-03-23 06:51:00,58.2,50.0,30.07,North,5,2.0,7.0,74,0.00,,,0.00,VWS V15.00,2014-03-23 11:51:00,
2014-03-23 06:53:00,58.2,50.0,30.07,NNW,344,0.0,7.0,74,0.00,,,0.00,VWS V15.00,2014-03-23 11:53:00,
2014-03-23 06:54:00,58.2,50.0,30.07,NNW,344,0.0,7.0,74,0.00,,,0.00,VWS V15.00,2014-03-23 11:54:00,
2014-03-23 06:55:00,58.2,50.0,30.07,NNE,17,0.0,7.0,74,0.00,,,0.00,VWS V15.00,2014-03-23 11:55:00,
2014-03-23 06:56:00,58.1,50.2,30.07,NNW,342,0.0,7.0,75,0.00,,,0.00,VWS V15.00,2014-03-23 11:56:00,
2014-03-23 06:57:00,58.1,49.9,30.07,NNE,20,3.0,7.0,74,0.00,,,0.00,VWS V15.00,2014-03-23 11:57:00,
2014-03-23 06:58:00,58.1,49.9,30.07,NNW,347,1.0,7.0,74,0.00,,,0.00,VWS V15.00,2014-03-23 11:58:00,
2014-03-23 06:59:00,58.1,49.9,30.07,NNW,347,0.0,7.0,74,0.00,,,0.00,VWS V15.00,2014-03-23 11:59:00,
2014-03-23 07:00:00,58.1,49.9,30.07,ENE,69,1.0,4.0,74,0.00,,,0.00,VWS V15.00,2014-03-23 12:00:00,
2014-03-23 07:01:00,58.1,49.9,30.07,North,360,1.0,5.0,74,0.00,,,0.00,VWS V15.00,2014-03-23 12:01:00,
2014-03-23 07:02:00,58.1,49.9,30.07,NNE,22,1.0,5.0,74,0.00,,,0.00,VWS V15.00,2014-03-23 12:02:00,
2014-03-23 07:04:00,58.1,50.2,30.07,North,11,0.0,5.0,75,0.00,,,0.00,VWS V15.00,2014-03-23 12:04:00,
2014-03-23 07:05:00,58.0,50.1,30.07,North,11,0.0,5.0,75,0.00,,,0.00,VWS V15.00,2014-03-23 12:05:00,
2014-03-23 07:06:00,58.0,50.1,30.07,North,11,2.0,5.0,75,0.00,,,0.00,VWS V15.00,2014-03-23 12:06:00,
2014-03-23 07:08:00,58.0,50.1,30.07,NNW,336,1.0,6.0,75,0.00,,,0.00,VWS V15.00,2014-03-23 12:08:00,
2014-03-23 07:09:00,58.0,50.1,30.07,North,350,1.0,6.0,75,0.00,,,0.00,VWS V15.00,2014-03-23 12:09:00,
2014-03-23 07:10:00,58.0,49.8,30.07,NNE,13,0.0,6.0,74,0.00,,,0.00,VWS V15.00,2014-03-23 12:10:00,
2014-03-23 07:11:00,58.0,49.8,30.07,NW,315,0.0,6.0,74,0.00,,,0.00,VWS V15.00,2014-03-23 12:11:00,
2014-03-23 07:12:00,58.0,49.8,30.07,North,5,4.0,6.0,74,0.00,,,0.00,VWS V15.00,2014-03-23 12:12:00,
2014-03-23 07:13:00,58.0,49.8,30.07,North,360,0.0,6.0,74,0.00,,,0.00,VWS V15.00,2014-03-23 12:13:00,
2014-03-23 07:14:00,58.0,49.8,30.07,NNW,340,4.0,7.0,74,0.00,,,0.00,VWS V15.00,2014-03-23 12:14:00,
2014-03-23 07:15:00,58.0,49.8,30.07,North,360,1.0,7.0,74,0.00,,,0.00,VWS V15.00,2014-03-23 12:15:00,
2014-03-23 07:16:00,58.0,50.1,30.07,NW,323,5.0,7.0,75,0.00,,,0.00,VWS V15.00,2014-03-23 12:16:00,
2014-03-23 07:17:00,57.9,50.0,30.07,North,355,6.0,7.0,75,0.00,,,0.00,VWS V15.00,2014-03-23 12:17:00,
2014-03-23 07:18:00,57.9,50.0,30.07,NNW,329,0.0,7.0,75,0.00,,,0.00,VWS V15.00,2014-03-23 12:18:00,
2014-03-23 07:19:00,57.9,50.0,30.07,NNW,329,2.0,7.0,75,0.00,,,0.00,VWS V15.00,2014-03-23 12:19:00,
2014-03-23 07:20:00,57.9,50.0,30.07,NNW,347,4.0,7.0,75,0.00,,,0.00,VWS V15.00,2014-03-23 12:20:00,
2014-03-23 07:21:00,57.9,50.0,30.07,NNW,332,0.0,7.0,75,0.00,,,0.00,VWS V15.00,2014-03-23 12:21:00,
2014-03-23 07:22:00,57.8,49.9,30.07,NNW,344,3.0,7.0,75,0.00,,,0.00,VWS V15.00,2014-03-23 12:22:00,
2014-03-23 07:24:00,57.8,50.3,30.07,North,355,2.0,7.0,76,0.00,,,0.00,VWS V15.00,2014-03-23 12:24:00,
2014-03-23 07:25:00,57.8,50.3,30.07,North,355,1.0,7.0,76,0.00,,,0.00,VWS V15.00,2014-03-23 12:25:00,
2014-03-23 07:26:00,57.8,50.3,30.07,North,5,3.0,7.0,76,0.00,,,0.00,VWS V15.00,2014-03-23 12:26:00,
2014-03-23 07:27:00,57.8,50.3,30.07,North,355,5.0,7.0,76,0.00,,,0.00,VWS V15.00,2014-03-23 12:27:00,
2014-03-23 07:29:00,57.7,50.2,30.08,NNW,341,1.0,7.0,76,0.00,,,0.00,VWS V15.00,2014-03-23 12:29:00,
2014-03-23 07:30:00,57.7,50.2,30.08,North,11,3.0,7.0,76,0.00,,,0.00,VWS V15.00,2014-03-23 12:30:00,
2014-03-23 07:31:00,57.6,50.5,30.08,NNW,340,6.0,7.0,77,0.00,,,0.00,VWS V15.00,2014-03-23 12:31:00,
2014-03-23 07:32:00,57.6,50.5,30.08,NE,51,5.0,8.0,77,0.00,,,0.00,VWS V15.00,2014-03-23 12:32:00,
2014-03-23 07:35:00,57.5,50.4,30.08,North,350,2.0,8.0,77,0.00,,,0.00,VWS V15.00,2014-03-23 12:35:00,
2014-03-23 07:36:00,57.5,50.4,30.08,WSW,242,2.0,8.0,77,0.00,,,0.00,VWS V15.00,2014-03-23 12:36:00,
2014-03-23 07:37:00,57.5,50.4,30.08,North,350,4.0,8.0,77,0.00,,,0.00,VWS V15.00,2014-03-23 12:37:00,
2014-03-23 07:40:00,57.3,50.2,30.09,NNE,23,0.0,8.0,77,0.00,,,0.00,VWS V15.00,2014-03-23 12:40:00,
2014-03-23 07:41:00,57.3,50.2,30.09,NNE,23,1.0,8.0,77,0.00,,,0.00,VWS V15.00,2014-03-23 12:41:00,
2014-03-23 07:42:00,57.2,50.1,30.09,North,355,0.0,8.0,77,0.00,,,0.00,VWS V15.00,2014-03-23 12:42:00,
2014-03-23 07:43:00,57.2,50.1,30.09,WNW,299,2.0,8.0,77,0.00,,,0.00,VWS V15.00,2014-03-23 12:43:00,
2014-03-23 07:45:00,57.1,50.0,30.09,NNW,341,0.0,8.0,77,0.00,,,0.00,VWS V15.00,2014-03-23 12:45:00,
2014-03-23 07:46:00,57.1,50.3,30.09,NNW,341,0.0,8.0,78,0.00,,,0.00,VWS V15.00,2014-03-23 12:46:00,
2014-03-23 07:47:00,57.1,50.0,30.09,West,261,3.0,8.0,77,0.00,,,0.00,VWS V15.00,2014-03-23 12:47:00,
2014-03-23 07:48:00,57.1,50.3,30.09,NW,311,2.0,8.0,78,0.00,,,0.00,VWS V15.00,2014-03-23 12:48:00,
2014-03-23 07:51:00,56.9,50.1,30.09,North,349,1.0,8.0,78,0.00,,,0.00,VWS V15.00,2014-03-23 12:51:00,
2014-03-23 07:52:00,56.9,50.1,30.09,North,360,0.0,8.0,78,0.00,,,0.00,VWS V15.00,2014-03-23 12:52:00,
2014-03-23 07:53:00,56.9,50.1,30.09,North,5,4.0,8.0,78,0.00,,,0.00,VWS V15.00,2014-03-23 12:53:00,
2014-03-23 07:56:00,56.8,50.0,30.09,North,360,3.0,8.0,78,0.00,,,0.00,VWS V15.00,2014-03-23 12:56:00,
2014-03-23 07:57:00,56.8,49.7,30.09,NNW,346,0.0,8.0,77,0.00,,,0.00,VWS V15.00,2014-03-23 12:57:00,
2014-03-23 07:58:00,56.7,49.6,30.09,NNW,346,1.0,8.0,77,0.00,,,0.00,VWS V15.00,2014-03-23 12:58:00,
2014-03-23 07:59:00,56.7,49.6,30.09,NNW,348,0.0,8.0,77,0.00,,,0.00,VWS V15.00,2014-03-23 12:59:00,
2014-03-23 08:01:00,56.6,49.5,30.09,North,355,2.0,6.0,77,0.00,,,0.00,VWS V15.00,2014-03-23 13:01:00,
2014-03-23 08:02:00,56.6,49.5,30.09,NE,41,2.0,7.0,77,0.00,,,0.00,VWS V15.00,2014-03-23 13:02:00,
2014-03-23 08:03:00,56.6,49.5,30.09,North,360,2.0,7.0,77,0.00,,,0.00,VWS V15.00,2014-03-23 13:03:00,
2014-03-23 08:04:00,56.5,49.4,30.09,North,9,3.0,7.0,77,0.00,,,0.00,VWS V15.00,2014-03-23 13:04:00,
2014-03-23 08:06:00,56.4,49.3,30.09,NNE,16,1.0,7.0,77,0.00,,,0.00,VWS V15.00,2014-03-23 13:06:00,
2014-03-23 08:07:00,56.4,49.3,30.09,NNE,16,1.0,7.0,77,0.00,,,0.00,VWS V15.00,2014-03-23 13:07:00,
2014-03-23 08:08:00,56.4,49.6,30.10,North,349,2.0,7.0,78,0.00,,,0.00,VWS V15.00,2014-03-23 13:08:00,
2014-03-23 08:09:00,56.4,49.6,30.10,North,349,1.0,7.0,78,0.00,,,0.00,VWS V15.00,2014-03-23 13:09:00,
2014-03-23 08:11:00,56.3,49.2,30.10,North,360,2.0,12.0,77,0.00,,,0.00,VWS V15.00,2014-03-23 13:11:00,
2014-03-23 08:12:00,56.3,49.2,30.10,North,5,2.0,12.0,77,0.00,,,0.00,VWS V15.00,2014-03-23 13:12:00,
2014-03-23 08:13:00,56.3,49.2,30.10,NW,313,3.0,12.0,77,0.00,,,0.00,VWS V15.00,2014-03-23 13:13:00,
2014-03-23 08:14:00,56.2,49.1,30.10,NW,313,0.0,12.0,77,0.00,,,0.00,VWS V15.00,2014-03-23 13:14:00,
2014-03-23 08:15:00,56.2,49.1,30.10,WNW,296,4.0,12.0,77,0.00,,,0.00,VWS V15.00,2014-03-23 13:15:00,
2014-03-23 08:16:00,56.2,49.1,30.10,NNW,348,3.0,12.0,77,0.00,,,0.00,VWS V15.00,2014-03-23 13:16:00,
2014-03-23 08:17:00,56.2,49.1,30.10,North,360,0.0,12.0,77,0.00,,,0.00,VWS V15.00,2014-03-23 13:17:00,
2014-03-23 08:18:00,56.2,49.1,30.10,North,360,4.0,12.0,77,0.00,,,0.00,VWS V15.00,2014-03-23 13:18:00,
2014-03-23 08:19:00,56.2,49.1,30.10,North,350,5.0,12.0,77,0.00,,,0.00,VWS V15.00,2014-03-23 13:19:00,
2014-03-23 08:20:00,56.2,49.1,30.10,NNW,339,3.0,12.0,77,0.00,,,0.00,VWS V15.00,2014-03-23 13:20:00,
2014-03-23 08:21:00,56.2,49.1,30.10,NNW,341,4.0,12.0,77,0.00,,,0.00,VWS V15.00,2014-03-23 13:21:00,
2014-03-23 08:22:00,56.2,49.1,30.10,NNE,17,6.0,12.0,77,0.00,,,0.00,VWS V15.00,2014-03-23 13:22:00,
2014-03-23 08:23:00,56.1,49.0,30.10,North,351,4.0,12.0,77,0.00,,,0.00,VWS V15.00,2014-03-23 13:23:00,
2014-03-23 08:24:00,56.1,49.0,30.10,North,5,3.0,12.0,77,0.00,,,0.00,VWS V15.00,2014-03-23 13:24:00,
2014-03-23 08:25:00,56.1,49.0,30.10,North,355,9.0,12.0,77,0.00,,,0.00,VWS V15.00,2014-03-23 13:25:00,
2014-03-23 08:26:00,56.1,48.7,30.10,NNW,339,4.0,12.0,76,0.00,,,0.00,VWS V15.00,2014-03-23 13:26:00,
2014-03-23 08:27:00,56.1,48.7,30.10,NNW,344,4.0,12.0,76,0.00,,,0.00,VWS V15.00,2014-03-23 13:27:00,
2014-03-23 08:29:00,56.2,49.1,30.10,NW,317,2.0,5.0,77,0.00,,,0.00,VWS V15.00,2014-03-23 13:29:00,
2014-03-23 08:30:00,56.2,49.1,30.10,NW,306,2.0,5.0,77,0.00,,,0.00,VWS V15.00,2014-03-23 13:30:00,
2014-03-23 08:31:00,56.2,48.8,30.09,NNE,22,4.0,5.0,76,0.00,,,0.00,VWS V15.00,2014-03-23 13:31:00,
2014-03-23 08:32:00,56.2,49.1,30.09,NNE,22,4.0,5.0,77,0.00,,,0.00,VWS V15.00,2014-03-23 13:32:00,
2014-03-23 08:34:00,56.3,48.8,30.09,North,351,2.0,7.0,76,0.00,,,0.00,VWS V15.00,2014-03-23 13:34:00,
2014-03-23 08:35:00,56.3,48.8,30.09,NNE,15,5.0,7.0,76,0.00,,,0.00,VWS V15.00,2014-03-23 13:35:00,
2014-03-23 08:36:00,56.4,48.9,30.09,NE,53,4.0,10.0,76,0.00,,,0.00,VWS V15.00,2014-03-23 13:36:00,
2014-03-23 08:37:00,56.4,48.9,30.09,NE,55,1.0,10.0,76,0.00,,,0.00,VWS V15.00,2014-03-23 13:37:00,
2014-03-23 08:39:00,56.4,48.6,30.08,NNW,346,2.0,10.0,75,0.00,,,0.00,VWS V15.00,2014-03-23 13:39:00,
2014-03-23 08:40:00,56.4,48.9,30.08,NNW,346,2.0,10.0,76,0.00,,,0.00,VWS V15.00,2014-03-23 13:40:00,
2014-03-23 08:41:00,56.4,48.9,30.09,NE,46,1.0,10.0,76,0.00,,,0.00,VWS V15.00,2014-03-23 13:41:00,
2014-03-23 08:42:00,56.4,48.9,30.09,WNW,286,2.0,10.0,76,0.00,,,0.00,VWS V15.00,2014-03-23 13:42:00,
2014-03-23 08:43:00,56.4,48.9,30.09,WNW,289,2.0,10.0,76,0.00,,,0.00,VWS V15.00,2014-03-23 13:43:00,
2014-03-23 08:45:00,56.3,48.5,30.09,NNW,348,2.0,10.0,75,0.00,,,0.00,VWS V15.00,2014-03-23 13:45:00,
2014-03-23 08:47:00,56.3,48.5,30.09,NE,34,7.0,10.0,75,0.00,,,0.00,VWS V15.00,2014-03-23 13:47:00,
2014-03-23 08:48:00,56.3,48.5,30.09,NNW,340,3.0,10.0,75,0.00,,,0.00,VWS V15.00,2014-03-23 13:48:00,
2014-03-23 08:50:00,56.3,48.8,30.09,WNW,292,3.0,10.0,76,0.00,,,0.00,VWS V15.00,2014-03-23 13:50:00,
2014-03-23 08:51:00,56.3,48.5,30.09,SE,142,3.0,10.0,75,0.00,,,0.00,VWS V15.00,2014-03-23 13:51:00,
2014-03-23 08:52:00,56.3,48.8,30.09,North,355,3.0,10.0,76,0.00,,,0.00,VWS V15.00,2014-03-23 13:52:00,
2014-03-23 08:53:00,56.3,48.8,30.09,North,349,4.0,10.0,76,0.00,,,0.00,VWS V15.00,2014-03-23 13:53:00,
2014-03-23 08:56:00,56.4,48.6,30.10,North,355,3.0,10.0,75,0.00,,,0.00,VWS V15.00,2014-03-23 13:56:00,
2014-03-23 08:57:00,56.4,48.6,30.10,NNW,344,6.0,10.0,75,0.00,,,0.00,VWS V15.00,2014-03-23 13:57:00,
2014-03-23 08:58:00,56.4,48.6,30.10,North,355,7.0,10.0,75,0.00,,,0.00,VWS V15.00,2014-03-23 13:58:00,
2014-03-23 09:01:00,56.4,48.6,30.10,NNW,336,5.0,5.0,75,0.00,,,0.00,VWS V15.00,2014-03-23 14:01:00,
2014-03-23 09:02:00,56.4,48.6,30.10,NE,53,5.0,6.0,75,0.00,,,0.00,VWS V15.00,2014-03-23 14:02:00,
2014-03-23 09:03:00,56.5,48.7,30.10,NNE,15,3.0,7.0,75,0.00,,,0.00,VWS V15.00,2014-03-23 14:03:00,
2014-03-23 09:06:00,56.5,48.7,30.11,NW,307,0.0,10.0,75,0.00,,,0.00,VWS V15.00,2014-03-23 14:06:00,
2014-03-23 09:07:00,56.5,48.7,30.11,NW,323,5.0,10.0,75,0.00,,,0.00,VWS V15.00,2014-03-23 14:07:00,
2014-03-23 09:08:00,56.5,48.7,30.11,North,355,4.0,10.0,75,0.00,,,0.00,VWS V15.00,2014-03-23 14:08:00,
2014-03-23 09:09:00,56.5,48.7,30.11,NW,311,4.0,10.0,75,0.00,,,0.00,VWS V15.00,2014-03-23 14:09:00,
2014-03-23 09:11:00,56.5,48.3,30.11,East,80,0.0,10.0,74,0.00,,,0.00,VWS V15.00,2014-03-23 14:11:00,
2014-03-23 09:13:00,56.5,48.3,30.11,West,263,1.0,10.0,74,0.00,,,0.00,VWS V15.00,2014-03-23 14:13:00,
2014-03-23 09:14:00,56.5,48.7,30.11,NE,51,3.0,10.0,75,0.00,,,0.00,VWS V15.00,2014-03-23 14:14:00,
2014-03-23 09:17:00,56.6,48.4,30.11,North,355,0.0,10.0,74,0.00,,,0.00,VWS V15.00,2014-03-23 14:17:00,
2014-03-23 09:18:00,56.5,48.3,30.11,North,349,3.0,10.0,74,0.00,,,0.00,VWS V15.00,2014-03-23 14:18:00,
2014-03-23 09:19:00,56.6,48.4,30.11,NNE,14,3.0,10.0,74,0.00,,,0.00,VWS V15.00,2014-03-23 14:19:00,
2014-03-23 09:22:00,56.6,48.4,30.11,North,9,4.0,11.0,74,0.00,,,0.00,VWS V15.00,2014-03-23 14:22:00,
2014-03-23 09:23:00,56.6,48.1,30.11,North,350,2.0,11.0,73,0.00,,,0.00,VWS V15.00,2014-03-23 14:23:00,
2014-03-23 09:24:00,56.6,48.1,30.11,NNW,348,2.0,11.0,73,0.00,,,0.00,VWS V15.00,2014-03-23 14:24:00,
2014-03-23 09:28:00,56.6,48.1,30.12,NNW,336,2.0,11.0,73,0.00,,,0.00,VWS V15.00,2014-03-23 14:28:00,
2014-03-23 09:29:00,56.6,48.1,30.12,North,355,6.0,7.0,73,0.00,,,0.00,VWS V15.00,2014-03-23 14:29:00,
2014-03-23 09:30:00,56.6,48.1,30.12,East,84,2.0,7.0,73,0.00,,,0.00,VWS V15.00,2014-03-23 14:30:00,
2014-03-23 09:33:00,56.6,48.1,30.12,North,9,3.0,10.0,73,0.00,,,0.00,VWS V15.00,2014-03-23 14:33:00,
2014-03-23 09:34:00,56.6,47.7,30.12,North,355,4.0,10.0,72,0.00,,,0.00,VWS V15.00,2014-03-23 14:34:00,
2014-03-23 09:35:00,56.6,47.7,30.12,NNW,344,7.0,11.0,72,0.00,,,0.00,VWS V15.00,2014-03-23 14:35:00,
2014-03-23 09:38:00,56.7,47.8,30.12,North,355,7.0,11.0,72,0.00,,,0.00,VWS V15.00,2014-03-23 14:38:00,
2014-03-23 09:39:00,56.7,47.8,30.12,NNE,24,4.0,11.0,72,0.00,,,0.00,VWS V15.00,2014-03-23 14:39:00,
2014-03-23 09:40:00,56.7,47.8,30.12,NNW,332,4.0,11.0,72,0.00,,,0.00,VWS V15.00,2014-03-23 14:40:00,
2014-03-23 09:43:00,56.9,47.6,30.12,WNW,289,1.0,12.0,71,0.00,,,0.00,VWS V15.00,2014-03-23 14:43:00,
2014-03-23 09:44:00,56.9,47.6,30.12,WNW,290,2.0,12.0,71,0.00,,,0.00,VWS V15.00,2014-03-23 14:44:00,
2014-03-23 09:45:00,56.9,47.6,30.12,NNW,342,1.0,12.0,71,0.00,,,0.00,VWS V15.00,2014-03-23 14:45:00,
2014-03-23 09:46:00,57.0,48.1,30.12,North,360,4.0,12.0,72,0.00,,,0.00,VWS V15.00,2014-03-23 14:46:00,
2014-03-23 09:49:00,57.1,47.4,30.13,NNE,13,5.0,12.0,70,0.00,,,0.00,VWS V15.00,2014-03-23 14:49:00,
2014-03-23 09:50:00,57.1,47.8,30.13,NE,40,3.0,12.0,71,0.00,,,0.00,VWS V15.00,2014-03-23 14:50:00,
2014-03-23 09:51:00,57.1,47.8,30.13,ESE,104,3.0,12.0,71,0.00,,,0.00,VWS V15.00,2014-03-23 14:51:00,
2014-03-23 09:54:00,57.1,47.8,30.13,NW,311,10.0,12.0,71,0.00,,,0.00,VWS V15.00,2014-03-23 14:54:00,
2014-03-23 09:55:00,57.2,47.9,30.13,North,360,2.0,12.0,71,0.00,,,0.00,VWS V15.00,2014-03-23 14:55:00,
2014-03-23 09:56:00,57.2,47.9,30.13,North,5,4.0,12.0,71,0.00,,,0.00,VWS V15.00,2014-03-23 14:56:00,
2014-03-23 09:57:00,57.2,47.5,30.13,North,349,4.0,12.0,70,0.00,,,0.00,VWS V15.00,2014-03-23 14:57:00,
2014-03-23 09:59:00,57.3,47.6,30.13,NNE,25,5.0,5.0,70,0.00,,,0.00,VWS V15.00,2014-03-23 14:59:00,
2014-03-23 10:00:00,57.2,47.5,30.13,North,5,5.0,6.0,70,0.00,,,0.00,VWS V15.00,2014-03-23 15:00:00,
2014-03-23 10:01:00,57.3,47.2,30.13,NE,55,4.0,6.0,69,0.00,,,0.00,VWS V15.00,2014-03-23 15:01:00,
2014-03-23 10:03:00,57.3,47.2,30.13,North,360,4.0,7.0,69,0.00,,,0.00,VWS V15.00,2014-03-23 15:03:00,
2014-03-23 10:04:00,57.3,47.2,30.13,North,5,3.0,8.0,69,0.00,,,0.00,VWS V15.00,2014-03-23 15:04:00,
2014-03-23 10:05:00,57.3,47.2,30.13,East,80,6.0,8.0,69,0.00,,,0.00,VWS V15.00,2014-03-23 15:05:00,
2014-03-23 10:06:00,57.3,47.2,30.13,NNW,336,1.0,8.0,69,0.00,,,0.00,VWS V15.00,2014-03-23 15:06:00,
2014-03-23 10:08:00,57.5,47.8,30.14,North,5,3.0,8.0,70,0.00,,,0.00,VWS V15.00,2014-03-23 15:08:00,
2014-03-23 10:09:00,57.5,47.8,30.14,WNW,300,2.0,8.0,70,0.00,,,0.00,VWS V15.00,2014-03-23 15:09:00,
2014-03-23 10:10:00,57.6,47.5,30.14,NNW,348,0.0,8.0,69,0.00,,,0.00,VWS V15.00,2014-03-23 15:10:00,
2014-03-23 10:11:00,57.6,47.5,30.14,NNW,348,5.0,8.0,69,0.00,,,0.00,VWS V15.00,2014-03-23 15:11:00,
2014-03-23 10:12:00,57.7,47.6,30.14,NNE,26,3.0,8.0,69,0.00,,,0.00,VWS V15.00,2014-03-23 15:12:00,
2014-03-23 10:13:00,57.8,47.3,30.14,WSW,252,3.0,9.0,68,0.00,,,0.00,VWS V15.00,2014-03-23 15:13:00,
2014-03-23 10:15:00,57.9,47.4,30.14,North,360,0.0,9.0,68,0.00,,,0.00,VWS V15.00,2014-03-23 15:15:00,
2014-03-23 10:16:00,57.9,47.8,30.14,NNE,15,3.0,9.0,69,0.00,,,0.00,VWS V15.00,2014-03-23 15:16:00,
2014-03-23 10:17:00,58.0,47.9,30.14,NNW,340,3.0,9.0,69,0.00,,,0.00,VWS V15.00,2014-03-23 15:17:00,
2014-03-23 10:19:00,58.0,47.5,30.15,NNW,339,4.0,10.0,68,0.00,,,0.00,VWS V15.00,2014-03-23 15:19:00,
2014-03-23 10:21:00,58.0,47.1,30.15,North,355,5.0,10.0,67,0.00,,,0.00,VWS V15.00,2014-03-23 15:21:00,
2014-03-23 10:22:00,58.0,47.1,30.15,NW,315,3.0,10.0,67,0.00,,,0.00,VWS V15.00,2014-03-23 15:22:00,
2014-03-23 10:23:00,58.0,47.5,30.14,NW,326,5.0,10.0,68,0.00,,,0.00,VWS V15.00,2014-03-23 15:23:00,
2014-03-23 10:24:00,58.0,47.1,30.14,NNE,31,2.0,10.0,67,0.00,,,0.00,VWS V15.00,2014-03-23 15:24:00,
2014-03-23 10:26:00,58.0,47.5,30.15,NNE,24,2.0,10.0,68,0.00,,,0.00,VWS V15.00,2014-03-23 15:26:00,
2014-03-23 10:27:00,58.1,47.6,30.15,NE,40,7.0,10.0,68,0.00,,,0.00,VWS V15.00,2014-03-23 15:27:00,
2014-03-23 10:28:00,58.1,47.6,30.15,North,5,8.0,10.0,68,0.00,,,0.00,VWS V15.00,2014-03-23 15:28:00,
2014-03-23 10:29:00,58.2,47.3,30.15,North,355,5.0,8.0,67,0.00,,,0.00,VWS V15.00,2014-03-23 15:29:00,
2014-03-23 10:31:00,58.1,47.2,30.15,NE,38,6.0,8.0,67,0.00,,,0.00,VWS V15.00,2014-03-23 15:31:00,
2014-03-23 10:32:00,58.1,47.6,30.15,NNW,329,3.0,8.0,68,0.00,,,0.00,VWS V15.00,2014-03-23 15:32:00,
2014-03-23 10:33:00,58.1,47.6,30.15,North,351,2.0,8.0,68,0.00,,,0.00,VWS V15.00,2014-03-23 15:33:00,
2014-03-23 10:34:00,58.1,47.6,30.15,NNW,338,3.0,10.0,68,0.00,,,0.00,VWS V15.00,2014-03-23 15:34:00,
2014-03-23 10:36:00,58.1,48.0,30.15,NW,310,1.0,10.0,69,0.00,,,0.00,VWS V15.00,2014-03-23 15:36:00,
2014-03-23 10:38:00,58.2,47.7,30.16,North,360,0.0,10.0,68,0.00,,,0.00,VWS V15.00,2014-03-23 15:38:00,
2014-03-23 10:39:00,58.4,48.3,30.15,NNE,19,2.0,10.0,69,0.00,,,0.00,VWS V15.00,2014-03-23 15:39:00,
2014-03-23 10:40:00,58.5,48.4,30.15,NNE,18,4.0,10.0,69,0.00,,,0.00,VWS V15.00,2014-03-23 15:40:00,
2014-03-23 10:41:00,58.6,48.1,30.16,North,5,4.0,10.0,68,0.00,,,0.00,VWS V15.00,2014-03-23 15:41:00,
2014-03-23 10:43:00,58.7,48.2,30.16,NW,319,1.0,10.0,68,0.00,,,0.00,VWS V15.00,2014-03-23 15:43:00,
2014-03-23 10:45:00,58.9,48.0,30.16,North,9,2.0,10.0,67,0.00,,,0.00,VWS V15.00,2014-03-23 15:45:00,
2014-03-23 10:46:00,58.9,48.0,30.16,North,11,5.0,10.0,67,0.00,,,0.00,VWS V15.00,2014-03-23 15:46:00,
2014-03-23 10:47:00,58.9,48.0,30.16,North,355,3.0,10.0,67,0.00,,,0.00,VWS V15.00,2014-03-23 15:47:00,
2014-03-23 10:48:00,58.8,47.9,30.16,NNE,12,1.0,10.0,67,0.00,,,0.00,VWS V15.00,2014-03-23 15:48:00,
2014-03-23 10:51:00,58.7,48.2,30.16,NNE,15,2.0,10.0,68,0.00,,,0.00,VWS V15.00,2014-03-23 15:51:00,
2014-03-23 10:52:00,58.7,48.2,30.16,NNW,344,4.0,10.0,68,0.00,,,0.00,VWS V15.00,2014-03-23 15:52:00,
2014-03-23 10:53:00,58.7,48.2,30.16,NNW,348,3.0,10.0,68,0.00,,,0.00,VWS V15.00,2014-03-23 15:53:00,
2014-03-23 10:56:00,58.8,47.9,30.16,NNW,342,4.0,10.0,67,0.00,,,0.00,VWS V15.00,2014-03-23 15:56:00,
2014-03-23 10:57:00,58.8,47.9,30.16,NNW,346,2.0,10.0,67,0.00,,,0.00,VWS V15.00,2014-03-23 15:57:00,
2014-03-23 10:59:00,58.7,47.8,30.16,North,351,3.0,4.0,67,0.00,,,0.00,VWS V15.00,2014-03-23 15:59:00,
2014-03-23 11:01:00,58.7,48.2,30.17,ENE,76,4.0,6.0,68,0.00,,,0.00,VWS V15.00,2014-03-23 16:01:00,
2014-03-23 11:02:00,58.7,48.2,30.17,NW,304,1.0,6.0,68,0.00,,,0.00,VWS V15.00,2014-03-23 16:02:00,
2014-03-23 11:03:00,58.7,48.2,30.17,NNE,26,1.0,6.0,68,0.00,,,0.00,VWS V15.00,2014-03-23 16:03:00,
2014-03-23 11:04:00,58.7,48.2,30.17,NNE,23,1.0,6.0,68,0.00,,,0.00,VWS V15.00,2014-03-23 16:04:00,
2014-03-23 11:05:00,58.7,47.8,30.17,NNW,343,2.0,6.0,67,0.00,,,0.00,VWS V15.00,2014-03-23 16:05:00,
2014-03-23 11:06:00,58.7,47.8,30.17,North,350,6.0,6.0,67,0.00,,,0.00,VWS V15.00,2014-03-23 16:06:00,
2014-03-23 11:07:00,58.6,47.7,30.17,North,5,4.0,6.0,67,0.00,,,0.00,VWS V15.00,2014-03-23 16:07:00,
2014-03-23 11:08:00,58.6,47.7,30.17,North,5,2.0,6.0,67,0.00,,,0.00,VWS V15.00,2014-03-23 16:08:00,
2014-03-23 11:09:00,58.6,48.1,30.17,North,9,7.0,10.0,68,0.00,,,0.00,VWS V15.00,2014-03-23 16:09:00,
2014-03-23 11:10:00,58.5,48.0,30.17,North,350,3.0,10.0,68,0.00,,,0.00,VWS V15.00,2014-03-23 16:10:00,
2014-03-23 11:11:00,58.5,48.4,30.17,NNE,24,3.0,10.0,69,0.00,,,0.00,VWS V15.00,2014-03-23 16:11:00,
2014-03-23 11:13:00,58.5,48.4,30.17,NW,325,3.0,10.0,69,0.00,,,0.00,VWS V15.00,2014-03-23 16:13:00,
2014-03-23 11:14:00,58.6,48.5,30.17,NNE,13,1.0,10.0,69,0.00,,,0.00,VWS V15.00,2014-03-23 16:14:00,
2014-03-23 11:15:00,58.6,48.5,30.17,NE,34,3.0,10.0,69,0.00,,,0.00,VWS V15.00,2014-03-23 16:15:00,
2014-03-23 11:16:00,58.6,48.5,30.17,NNW,343,2.0,10.0,69,0.00,,,0.00,VWS V15.00,2014-03-23 16:16:00,
2014-03-23 11:18:00,58.6,48.5,30.17,NNE,18,2.0,10.0,69,0.00,,,0.00,VWS V15.00,2014-03-23 16:18:00,
2014-03-23 11:19:00,58.6,48.5,30.17,NNE,12,3.0,10.0,69,0.00,,,0.00,VWS V15.00,2014-03-23 16:19:00,
2014-03-23 11:21:00,58.7,49.0,30.17,NE,45,3.0,10.0,70,0.00,,,0.00,VWS V15.00,2014-03-23 16:21:00,
2014-03-23 11:22:00,58.7,48.6,30.17,NNE,23,6.0,10.0,69,0.00,,,0.00,VWS V15.00,2014-03-23 16:22:00,
2014-03-23 11:23:00,58.7,48.2,30.17,North,5,3.0,10.0,68,0.00,,,0.00,VWS V15.00,2014-03-23 16:23:00,
2014-03-23 11:25:00,58.7,48.2,30.17,NNE,12,1.0,10.0,68,0.00,,,0.00,VWS V15.00,2014-03-23 16:25:00,
2014-03-23 11:26:00,58.8,48.7,30.17,North,349,0.0,10.0,69,0.00,,,0.00,VWS V15.00,2014-03-23 16:26:00,
2014-03-23 11:27:00,58.8,49.0,30.17,North,350,0.0,10.0,70,0.00,,,0.00,VWS V15.00,2014-03-23 16:27:00,
2014-03-23 11:28:00,58.9,49.2,30.17,North,360,1.0,10.0,70,0.00,,,0.00,VWS V15.00,2014-03-23 16:28:00,
2014-03-23 11:29:00,59.0,48.9,30.17,North,5,4.0,4.0,69,0.00,,,0.00,VWS V15.00,2014-03-23 16:29:00,
2014-03-23 11:30:00,59.2,48.7,30.17,North,10,4.0,6.0,68,0.00,,,0.00,VWS V15.00,2014-03-23 16:30:00,
2014-03-23 11:32:00,59.2,48.7,30.17,NNW,348,5.0,7.0,68,0.00,,,0.00,VWS V15.00,2014-03-23 16:32:00,
2014-03-23 11:33:00,59.3,48.4,30.17,NNE,14,5.0,7.0,67,0.00,,,0.00,VWS V15.00,2014-03-23 16:33:00,
2014-03-23 11:34:00,59.3,48.4,30.17,North,355,9.0,9.0,67,0.00,,,0.00,VWS V15.00,2014-03-23 16:34:00,
2014-03-23 11:35:00,59.3,48.0,30.17,North,11,2.0,9.0,66,0.00,,,0.00,VWS V15.00,2014-03-23 16:35:00,
2014-03-23 11:37:00,59.3,48.8,30.17,NE,49,1.0,9.0,68,0.00,,,0.00,VWS V15.00,2014-03-23 16:37:00,
2014-03-23 11:38:00,59.4,48.5,30.17,North,11,2.0,9.0,67,0.00,,,0.00,VWS V15.00,2014-03-23 16:38:00,
2014-03-23 11:39:00,59.4,48.5,30.17,North,10,4.0,9.0,67,0.00,,,0.00,VWS V15.00,2014-03-23 16:39:00,
2014-03-23 11:41:00,59.5,48.5,30.17,NNE,15,2.0,9.0,67,0.00,,,0.00,VWS V15.00,2014-03-23 16:41:00,
2014-03-23 11:42:00,59.6,48.6,30.16,ENE,62,2.0,9.0,67,0.00,,,0.00,VWS V15.00,2014-03-23 16:42:00,
2014-03-23 11:44:00,59.7,48.3,30.16,WNW,289,6.0,10.0,66,0.00,,,0.00,VWS V15.00,2014-03-23 16:44:00,
2014-03-23 11:46:00,59.8,48.0,30.16,NW,319,2.0,10.0,65,0.00,,,0.00,VWS V15.00,2014-03-23 16:46:00,
2014-03-23 11:47:00,59.9,48.5,30.16,WNW,301,1.0,10.0,66,0.00,,,0.00,VWS V15.00,2014-03-23 16:47:00,
2014-03-23 11:49:00,60.2,48.4,30.16,NNE,22,0.0,10.0,65,0.00,,,0.00,VWS V15.00,2014-03-23 16:49:00,
2014-03-23 11:50:00,60.2,48.4,30.16,NNE,22,3.0,10.0,65,0.00,,,0.00,VWS V15.00,2014-03-23 16:50:00,
2014-03-23 11:51:00,60.3,48.9,30.16,NNE,23,2.0,10.0,66,0.00,,,0.00,VWS V15.00,2014-03-23 16:51:00,
2014-03-23 11:52:00,60.5,48.7,30.16,NNE,19,2.0,10.0,65,0.00,,,0.00,VWS V15.00,2014-03-23 16:52:00,
2014-03-23 11:53:00,60.5,49.1,30.16,NNE,19,4.0,10.0,66,0.00,,,0.00,VWS V15.00,2014-03-23 16:53:00,
2014-03-23 11:55:00,60.7,48.9,30.16,NNE,20,1.0,10.0,65,0.00,,,0.00,VWS V15.00,2014-03-23 16:55:00,
2014-03-23 11:56:00,60.7,48.5,30.16,NNW,339,3.0,10.0,64,0.00,,,0.00,VWS V15.00,2014-03-23 16:56:00,
2014-03-23 11:57:00,60.8,49.0,30.16,ESE,104,2.0,10.0,65,0.00,,,0.00,VWS V15.00,2014-03-23 16:57:00,
2014-03-23 11:58:00,60.8,49.0,30.16,NW,310,5.0,10.0,65,0.00,,,0.00,VWS V15.00,2014-03-23 16:58:00,
2014-03-23 12:00:00,60.9,48.7,30.16,North,355,5.0,6.0,64,0.00,,,0.00,VWS V15.00,2014-03-23 17:00:00,
2014-03-23 12:01:00,61.0,49.2,30.16,NNW,340,2.0,7.0,65,0.00,,,0.00,VWS V15.00,2014-03-23 17:01:00,
2014-03-23 12:03:00,61.3,49.0,30.15,NE,55,3.0,7.0,64,0.00,,,0.00,VWS V15.00,2014-03-23 17:03:00,
2014-03-23 12:04:00,61.3,49.0,30.15,NNE,12,2.0,7.0,64,0.00,,,0.00,VWS V15.00,2014-03-23 17:04:00,
2014-03-23 12:05:00,61.4,49.1,30.16,North,5,3.0,8.0,64,0.00,,,0.00,VWS V15.00,2014-03-23 17:05:00,
2014-03-23 12:07:00,61.4,49.1,30.16,North,10,6.0,10.0,64,0.00,,,0.00,VWS V15.00,2014-03-23 17:07:00,
2014-03-23 12:08:00,61.6,49.3,30.16,NNW,343,3.0,10.0,64,0.00,,,0.00,VWS V15.00,2014-03-23 17:08:00,
2014-03-23 12:09:00,61.6,49.3,30.16,NNW,342,2.0,10.0,64,0.00,,,0.00,VWS V15.00,2014-03-23 17:09:00,
2014-03-23 12:10:00,61.6,48.9,30.16,NNW,346,6.0,10.0,63,0.00,,,0.00,VWS V15.00,2014-03-23 17:10:00,
2014-03-23 12:12:00,61.6,49.3,30.16,NNE,17,4.0,10.0,64,0.00,,,0.00,VWS V15.00,2014-03-23 17:12:00,
2014-03-23 12:13:00,61.6,49.3,30.16,NNW,348,2.0,10.0,64,0.00,,,0.00,VWS V15.00,2014-03-23 17:13:00,
2014-03-23 12:14:00,61.6,49.7,30.16,NNW,346,3.0,10.0,65,0.00,,,0.00,VWS V15.00,2014-03-23 17:14:00,
2014-03-23 12:15:00,61.6,49.3,30.16,North,11,2.0,10.0,64,0.00,,,0.00,VWS V15.00,2014-03-23 17:15:00,
2014-03-23 12:17:00,61.6,48.9,30.16,NNW,346,0.0,10.0,63,0.00,,,0.00,VWS V15.00,2014-03-23 17:17:00,
2014-03-23 12:19:00,61.6,48.9,30.16,North,360,1.0,10.0,63,0.00,,,0.00,VWS V15.00,2014-03-23 17:19:00,
2014-03-23 12:20:00,61.6,49.3,30.16,NNW,348,0.0,10.0,64,0.00,,,0.00,VWS V15.00,2014-03-23 17:20:00,
2014-03-23 12:21:00,61.7,49.8,30.16,NNW,340,0.0,10.0,65,0.00,,,0.00,VWS V15.00,2014-03-23 17:21:00,
2014-03-23 12:22:00,61.8,49.9,30.16,North,5,2.0,10.0,65,0.00,,,0.00,VWS V15.00,2014-03-23 17:22:00,
2014-03-23 12:24:00,62.0,49.3,30.16,NNW,347,2.0,10.0,63,0.00,,,0.00,VWS V15.00,2014-03-23 17:24:00,
2014-03-23 12:25:00,62.0,49.3,30.16,NW,326,4.0,10.0,63,0.00,,,0.00,VWS V15.00,2014-03-23 17:25:00,
2014-03-23 12:26:00,62.0,49.3,30.16,North,351,2.0,10.0,63,0.00,,,0.00,VWS V15.00,2014-03-23 17:26:00,
2014-03-23 12:27:00,62.0,49.3,30.16,NW,305,3.0,10.0,63,0.00,,,0.00,VWS V15.00,2014-03-23 17:27:00,
2014-03-23 12:29:00,61.9,49.6,30.16,NNW,346,4.0,4.0,64,0.00,,,0.00,VWS V15.00,2014-03-23 17:29:00,
2014-03-23 12:30:00,61.9,49.6,30.16,North,9,3.0,4.0,64,0.00,,,0.00,VWS V15.00,2014-03-23 17:30:00,
2014-03-23 12:31:00,61.8,49.5,30.16,NNW,333,0.0,6.0,64,0.00,,,0.00,VWS V15.00,2014-03-23 17:31:00,
2014-03-23 12:32:00,61.7,49.4,30.17,NNE,20,2.0,6.0,64,0.00,,,0.00,VWS V15.00,2014-03-23 17:32:00,
2014-03-23 12:34:00,61.7,50.2,30.16,North,5,2.0,7.0,66,0.00,,,0.00,VWS V15.00,2014-03-23 17:34:00,
2014-03-23 12:35:00,61.7,50.6,30.16,NNE,24,2.0,7.0,67,0.00,,,0.00,VWS V15.00,2014-03-23 17:35:00,
2014-03-23 12:36:00,61.7,50.6,30.16,NE,35,2.0,7.0,67,0.00,,,0.00,VWS V15.00,2014-03-23 17:36:00,
2014-03-23 12:37:00,61.7,50.2,30.16,NNE,19,5.0,7.0,66,0.00,,,0.00,VWS V15.00,2014-03-23 17:37:00,
2014-03-23 12:39:00,61.6,50.5,30.17,North,355,2.0,7.0,67,0.00,,,0.00,VWS V15.00,2014-03-23 17:39:00,
2014-03-23 12:41:00,61.6,50.5,30.17,NNE,15,2.0,7.0,67,0.00,,,0.00,VWS V15.00,2014-03-23 17:41:00,
2014-03-23 12:42:00,61.7,50.6,30.17,NE,40,3.0,7.0,67,0.00,,,0.00,VWS V15.00,2014-03-23 17:42:00,
2014-03-23 12:43:00,61.7,51.0,30.17,NE,36,5.0,7.0,68,0.00,,,0.00,VWS V15.00,2014-03-23 17:43:00,
2014-03-23 12:45:00,61.6,50.5,30.16,NNE,22,3.0,7.0,67,0.00,,,0.00,VWS V15.00,2014-03-23 17:45:00,
2014-03-23 12:46:00,61.6,50.1,30.16,NW,325,3.0,13.0,66,0.00,,,0.00,VWS V15.00,2014-03-23 17:46:00,
2014-03-23 12:47:00,61.5,50.0,30.16,NNE,14,1.0,13.0,66,0.00,,,0.00,VWS V15.00,2014-03-23 17:47:00,
2014-03-23 12:48:00,61.3,50.7,30.16,NNE,28,0.0,13.0,68,0.00,,,0.00,VWS V15.00,2014-03-23 17:48:00,
2014-03-23 12:50:00,61.2,50.2,30.16,North,10,2.0,13.0,67,0.00,,,0.00,VWS V15.00,2014-03-23 17:50:00,
2014-03-23 12:51:00,61.1,50.1,30.16,North,355,4.0,13.0,67,0.00,,,0.00,VWS V15.00,2014-03-23 17:51:00,
2014-03-23 12:52:00,61.1,50.5,30.16,NNW,347,1.0,13.0,68,0.00,,,0.00,VWS V15.00,2014-03-23 17:52:00,
2014-03-23 12:53:00,61.0,50.4,30.16,North,5,6.0,13.0,68,0.00,,,0.00,VWS V15.00,2014-03-23 17:53:00,
2014-03-23 12:54:00,61.0,50.4,30.16,North,11,6.0,13.0,68,0.00,,,0.00,VWS V15.00,2014-03-23 17:54:00,
2014-03-23 12:55:00,60.9,49.9,30.16,North,355,6.0,13.0,67,0.00,,,0.00,VWS V15.00,2014-03-23 17:55:00,
2014-03-23 12:57:00,60.8,49.8,30.16,NE,38,4.0,13.0,67,0.00,,,0.00,VWS V15.00,2014-03-23 17:57:00,
2014-03-23 12:58:00,60.8,50.2,30.16,ESE,111,5.0,13.0,68,0.00,,,0.00,VWS V15.00,2014-03-23 17:58:00,
2014-03-23 12:59:00,60.7,50.1,30.16,North,360,3.0,5.0,68,0.00,,,0.00,VWS V15.00,2014-03-23 17:59:00,
2014-03-23 13:00:00,60.6,49.6,30.15,NNW,333,1.0,9.0,67,0.00,,,0.00,VWS V15.00,2014-03-23 18:00:00,
2014-03-23 13:02:00,60.6,50.0,30.15,NNW,348,7.0,9.0,68,0.00,,,0.00,VWS V15.00,2014-03-23 18:02:00,
2014-03-23 13:03:00,60.6,50.0,30.15,NNE,12,2.0,9.0,68,0.00,,,0.00,VWS V15.00,2014-03-23 18:03:00,
2014-03-23 13:04:00,60.7,50.5,30.15,NNE,17,4.0,9.0,69,0.00,,,0.00,VWS V15.00,2014-03-23 18:04:00,
2014-03-23 13:05:00,60.9,50.7,30.15,NNE,28,3.0,9.0,69,0.00,,,0.00,VWS V15.00,2014-03-23 18:05:00,
2014-03-23 13:07:00,61.1,50.9,30.15,NNE,14,5.0,9.0,69,0.00,,,0.00,VWS V15.00,2014-03-23 18:07:00,
2014-03-23 13:08:00,61.3,50.7,30.15,North,5,2.0,9.0,68,0.00,,,0.00,VWS V15.00,2014-03-23 18:08:00,
2014-03-23 13:09:00,61.4,51.2,30.15,North,5,3.0,9.0,69,0.00,,,0.00,VWS V15.00,2014-03-23 18:09:00,
2014-03-23 13:10:00,61.5,50.8,30.15,NNE,23,2.0,9.0,68,0.00,,,0.00,VWS V15.00,2014-03-23 18:10:00,
2014-03-23 13:12:00,61.5,50.5,30.15,North,360,2.0,9.0,67,0.00,,,0.00,VWS V15.00,2014-03-23 18:12:00,
2014-03-23 13:13:00,61.4,50.0,30.15,NNE,13,5.0,9.0,66,0.00,,,0.00,VWS V15.00,2014-03-23 18:13:00,
2014-03-23 13:14:00,61.4,50.0,30.15,NNE,15,3.0,9.0,66,0.00,,,0.00,VWS V15.00,2014-03-23 18:14:00,
2014-03-23 13:15:00,61.2,50.2,30.15,North,9,2.0,9.0,67,0.00,,,0.00,VWS V15.00,2014-03-23 18:15:00,
2014-03-23 13:17:00,61.2,50.6,30.15,NNE,20,2.0,9.0,68,0.00,,,0.00,VWS V15.00,2014-03-23 18:17:00,
2014-03-23 13:19:00,61.3,50.7,30.15,East,93,9.0,9.0,68,0.00,,,0.00,VWS V15.00,2014-03-23 18:19:00,
2014-03-23 13:20:00,61.4,50.8,30.15,NNE,17,6.0,13.0,68,0.00,,,0.00,VWS V15.00,2014-03-23 18:20:00,
2014-03-23 13:22:00,61.4,50.4,30.15,NNE,15,2.0,13.0,67,0.00,,,0.00,VWS V15.00,2014-03-23 18:22:00,
2014-03-23 13:24:00,61.3,50.3,30.15,NNE,14,2.0,13.0,67,0.00,,,0.00,VWS V15.00,2014-03-23 18:24:00,
2014-03-23 13:25:00,61.3,50.3,30.15,North,350,2.0,13.0,67,0.00,,,0.00,VWS V15.00,2014-03-23 18:25:00,
2014-03-23 13:26:00,61.3,51.1,30.15,NNE,31,1.0,13.0,69,0.00,,,0.00,VWS V15.00,2014-03-23 18:26:00,
2014-03-23 13:28:00,61.3,50.3,30.14,NNW,339,5.0,13.0,67,0.00,,,0.00,VWS V15.00,2014-03-23 18:28:00,
2014-03-23 13:30:00,61.2,50.2,30.14,North,360,2.0,6.0,67,0.00,,,0.00,VWS V15.00,2014-03-23 18:30:00,
2014-03-23 13:31:00,61.1,50.1,30.14,NNE,19,3.0,7.0,67,0.00,,,0.00,VWS V15.00,2014-03-23 18:31:00,
2014-03-23 13:34:00,60.8,49.8,30.14,NNE,17,0.0,8.0,67,0.00,,,0.00,VWS V15.00,2014-03-23 18:34:00,
2014-03-23 13:35:00,60.7,49.7,30.14,NNW,344,3.0,8.0,67,0.00,,,0.00,VWS V15.00,2014-03-23 18:35:00,
2014-03-23 13:36:00,60.6,50.0,30.14,NNE,33,5.0,8.0,68,0.00,,,0.00,VWS V15.00,2014-03-23 18:36:00,
2014-03-23 13:37:00,60.6,49.6,30.14,NE,52,0.0,8.0,67,0.00,,,0.00,VWS V15.00,2014-03-23 18:37:00,
2014-03-23 13:39:00,60.6,50.0,30.14,North,355,3.0,8.0,68,0.00,,,0.00,VWS V15.00,2014-03-23 18:39:00,
2014-03-23 13:40:00,60.7,50.9,30.14,SE,142,2.0,8.0,70,0.00,,,0.00,VWS V15.00,2014-03-23 18:40:00,
2014-03-23 13:42:00,60.8,50.6,30.15,ENE,64,8.0,8.0,69,0.00,,,0.00,VWS V15.00,2014-03-23 18:42:00,
2014-03-23 13:44:00,60.9,50.3,30.15,NNE,15,2.0,9.0,68,0.00,,,0.00,VWS V15.00,2014-03-23 18:44:00,
2014-03-23 13:45:00,60.8,49.8,30.15,North,360,4.0,9.0,67,0.00,,,0.00,VWS V15.00,2014-03-23 18:45:00,
2014-03-23 13:46:00,60.8,49.8,30.15,North,355,3.0,9.0,67,0.00,,,0.00,VWS V15.00,2014-03-23 18:46:00,
2014-03-23 13:47:00,60.7,49.7,30.15,North,10,3.0,9.0,67,0.00,,,0.00,VWS V15.00,2014-03-23 18:47:00,
2014-03-23 13:49:00,60.6,49.6,30.15,NNE,22,2.0,9.0,67,0.00,,,0.00,VWS V15.00,2014-03-23 18:49:00,
2014-03-23 13:51:00,60.5,49.5,30.15,NNE,30,2.0,9.0,67,0.00,,,0.00,VWS V15.00,2014-03-23 18:51:00,
2014-03-23 13:52:00,60.5,49.9,30.14,North,10,4.0,9.0,68,0.00,,,0.00,VWS V15.00,2014-03-23 18:52:00,
2014-03-23 13:53:00,60.4,50.2,30.14,North,355,4.0,9.0,69,0.00,,,0.00,VWS V15.00,2014-03-23 18:53:00,
2014-03-23 13:54:00,60.5,49.9,30.14,NE,38,3.0,9.0,68,0.00,,,0.00,VWS V15.00,2014-03-23 18:54:00,
2014-03-23 13:56:00,60.5,50.3,30.14,East,91,5.0,9.0,69,0.00,,,0.00,VWS V15.00,2014-03-23 18:56:00,
2014-03-23 13:57:00,60.5,49.9,30.14,NNE,15,1.0,9.0,68,0.00,,,0.00,VWS V15.00,2014-03-23 18:57:00,
2014-03-23 13:58:00,60.5,49.9,30.14,NNE,14,3.0,9.0,68,0.00,,,0.00,VWS V15.00,2014-03-23 18:58:00,
2014-03-23 13:59:00,60.6,50.0,30.14,NNE,13,0.0,5.0,68,0.00,,,0.00,VWS V15.00,2014-03-23 18:59:00,
2014-03-23 14:00:00,60.6,50.0,30.13,NNE,13,0.0,5.0,68,0.00,,,0.00,VWS V15.00,2014-03-23 19:00:00,
2014-03-23 14:01:00,60.7,50.1,30.13,NNW,327,4.0,6.0,68,0.00,,,0.00,VWS V15.00,2014-03-23 19:01:00,
2014-03-23 14:02:00,60.7,50.1,30.13,NE,39,5.0,6.0,68,0.00,,,0.00,VWS V15.00,2014-03-23 19:02:00,
2014-03-23 14:03:00,60.7,49.7,30.13,NNE,13,0.0,6.0,67,0.00,,,0.00,VWS V15.00,2014-03-23 19:03:00,
2014-03-23 14:04:00,60.7,49.7,30.13,NNW,348,5.0,6.0,67,0.00,,,0.00,VWS V15.00,2014-03-23 19:04:00,
2014-03-23 14:05:00,60.6,49.6,30.13,NNW,347,2.0,6.0,67,0.00,,,0.00,VWS V15.00,2014-03-23 19:05:00,
2014-03-23 14:07:00,60.6,50.0,30.13,NNW,329,1.0,6.0,68,0.00,,,0.00,VWS V15.00,2014-03-23 19:07:00,
2014-03-23 14:08:00,60.6,50.0,30.13,NNW,328,4.0,6.0,68,0.00,,,0.00,VWS V15.00,2014-03-23 19:08:00,
2014-03-23 14:09:00,60.6,49.6,30.13,NNE,31,3.0,6.0,67,0.00,,,0.00,VWS V15.00,2014-03-23 19:09:00,
2014-03-23 14:11:00,60.5,49.9,30.14,North,350,2.0,6.0,68,0.00,,,0.00,VWS V15.00,2014-03-23 19:11:00,
2014-03-23 14:12:00,60.5,49.5,30.14,NE,53,3.0,6.0,67,0.00,,,0.00,VWS V15.00,2014-03-23 19:12:00,
2014-03-23 14:13:00,60.4,49.8,30.14,North,5,2.0,6.0,68,0.00,,,0.00,VWS V15.00,2014-03-23 19:13:00,
2014-03-23 14:14:00,60.4,49.8,30.14,North,5,1.0,6.0,68,0.00,,,0.00,VWS V15.00,2014-03-23 19:14:00,
2014-03-23 14:16:00,60.5,49.9,30.14,NW,313,0.0,6.0,68,0.00,,,0.00,VWS V15.00,2014-03-23 19:16:00,
2014-03-23 14:17:00,60.5,49.5,30.13,North,5,2.0,6.0,67,0.00,,,0.00,VWS V15.00,2014-03-23 19:17:00,
2014-03-23 14:18:00,60.5,49.9,30.13,NNE,22,2.0,6.0,68,0.00,,,0.00,VWS V15.00,2014-03-23 19:18:00,
2014-03-23 14:19:00,60.5,50.3,30.13,North,11,2.0,6.0,69,0.00,,,0.00,VWS V15.00,2014-03-23 19:19:00,
2014-03-23 14:20:00,60.6,50.0,30.13,NNE,18,2.0,6.0,68,0.00,,,0.00,VWS V15.00,2014-03-23 19:20:00,
2014-03-23 14:21:00,60.6,49.6,30.13,North,11,2.0,6.0,67,0.00,,,0.00,VWS V15.00,2014-03-23 19:21:00,
2014-03-23 14:23:00,60.6,49.6,30.13,North,355,1.0,6.0,67,0.00,,,0.00,VWS V15.00,2014-03-23 19:23:00,
2014-03-23 14:24:00,60.5,49.5,30.13,NNE,15,0.0,6.0,67,0.00,,,0.00,VWS V15.00,2014-03-23 19:24:00,
2014-03-23 14:25:00,60.5,49.5,30.13,North,9,1.0,6.0,67,0.00,,,0.00,VWS V15.00,2014-03-23 19:25:00,
2014-03-23 14:26:00,60.5,49.5,30.13,North,360,3.0,6.0,67,0.00,,,0.00,VWS V15.00,2014-03-23 19:26:00,
2014-03-23 14:27:00,60.5,49.1,30.13,North,351,1.0,6.0,66,0.00,,,0.00,VWS V15.00,2014-03-23 19:27:00,
2014-03-23 14:28:00,60.5,49.1,30.13,WSW,257,6.0,6.0,66,0.00,,,0.00,VWS V15.00,2014-03-23 19:28:00,
2014-03-23 14:30:00,60.5,49.1,30.13,NNW,342,2.0,4.0,66,0.00,,,0.00,VWS V15.00,2014-03-23 19:30:00,
2014-03-23 14:31:00,60.4,49.0,30.13,NNE,27,5.0,6.0,66,0.00,,,0.00,VWS V15.00,2014-03-23 19:31:00,
2014-03-23 14:32:00,60.4,49.0,30.13,North,5,6.0,6.0,66,0.00,,,0.00,VWS V15.00,2014-03-23 19:32:00,
2014-03-23 14:33:00,60.3,48.9,30.13,NNW,348,2.0,9.0,66,0.00,,,0.00,VWS V15.00,2014-03-23 19:33:00,
2014-03-23 14:35:00,60.3,49.3,30.13,North,360,2.0,13.0,67,0.00,,,0.00,VWS V15.00,2014-03-23 19:35:00,
2014-03-23 14:36:00,60.3,48.9,30.13,North,355,0.0,13.0,66,0.00,,,0.00,VWS V15.00,2014-03-23 19:36:00,
2014-03-23 14:37:00,60.3,49.3,30.13,NE,46,2.0,13.0,67,0.00,,,0.00,VWS V15.00,2014-03-23 19:37:00,
2014-03-23 14:38:00,60.3,49.3,30.13,NNE,13,3.0,13.0,67,0.00,,,0.00,VWS V15.00,2014-03-23 19:38:00,
2014-03-23 14:40:00,60.4,49.4,30.13,West,272,3.0,13.0,67,0.00,,,0.00,VWS V15.00,2014-03-23 19:40:00,
2014-03-23 14:41:00,60.4,49.4,30.12,North,349,1.0,13.0,67,0.00,,,0.00,VWS V15.00,2014-03-23 19:41:00,
2014-03-23 14:42:00,60.4,49.0,30.12,North,349,2.0,13.0,66,0.00,,,0.00,VWS V15.00,2014-03-23 19:42:00,
2014-03-23 14:43:00,60.5,49.5,30.13,North,355,5.0,13.0,67,0.00,,,0.00,VWS V15.00,2014-03-23 19:43:00,
2014-03-23 14:44:00,60.5,49.1,30.12,North,11,2.0,13.0,66,0.00,,,0.00,VWS V15.00,2014-03-23 19:44:00,
2014-03-23 14:46:00,60.7,49.7,30.12,NE,41,5.0,13.0,67,0.00,,,0.00,VWS V15.00,2014-03-23 19:46:00,
2014-03-23 14:47:00,60.9,49.9,30.12,North,355,1.0,13.0,67,0.00,,,0.00,VWS V15.00,2014-03-23 19:47:00,
2014-03-23 14:49:00,61.1,50.1,30.12,WNW,294,4.0,13.0,67,0.00,,,0.00,VWS V15.00,2014-03-23 19:49:00,
2014-03-23 14:51:00,61.3,49.5,30.12,North,355,3.0,13.0,65,0.00,,,0.00,VWS V15.00,2014-03-23 19:51:00,
2014-03-23 14:52:00,61.3,49.5,30.12,NNW,335,3.0,13.0,65,0.00,,,0.00,VWS V15.00,2014-03-23 19:52:00,
2014-03-23 14:53:00,61.3,49.5,30.13,NW,317,4.0,13.0,65,0.00,,,0.00,VWS V15.00,2014-03-23 19:53:00,
2014-03-23 14:54:00,61.3,49.0,30.13,NE,35,2.0,13.0,64,0.00,,,0.00,VWS V15.00,2014-03-23 19:54:00,
2014-03-23 14:57:00,61.2,49.3,30.12,North,5,3.0,13.0,65,0.00,,,0.00,VWS V15.00,2014-03-23 19:57:00,
2014-03-23 14:58:00,61.2,48.9,30.12,NNE,32,2.0,13.0,64,0.00,,,0.00,VWS V15.00,2014-03-23 19:58:00,
2014-03-23 14:59:00,61.2,48.9,30.12,North,349,3.0,4.0,64,0.00,,,0.00,VWS V15.00,2014-03-23 19:59:00,
2014-03-23 15:03:00,61.1,49.3,30.12,NNE,17,1.0,6.0,65,0.00,,,0.00,VWS V15.00,2014-03-23 20:03:00,
2014-03-23 15:04:00,61.1,49.3,30.12,North,355,2.0,6.0,65,0.00,,,0.00,VWS V15.00,2014-03-23 20:04:00,
2014-03-23 15:08:00,61.4,49.5,30.12,NNE,13,0.0,6.0,65,0.00,,,0.00,VWS V15.00,2014-03-23 20:08:00,
2014-03-23 15:09:00,61.5,50.0,30.12,North,11,3.0,6.0,66,0.00,,,0.00,VWS V15.00,2014-03-23 20:09:00,
2014-03-23 15:10:00,61.5,49.6,30.12,NNW,340,2.0,6.0,65,0.00,,,0.00,VWS V15.00,2014-03-23 20:10:00,
2014-03-23 15:13:00,61.8,49.9,30.12,NNE,17,4.0,7.0,65,0.00,,,0.00,VWS V15.00,2014-03-23 20:13:00,
2014-03-23 15:14:00,61.8,49.5,30.12,North,360,2.0,7.0,64,0.00,,,0.00,VWS V15.00,2014-03-23 20:14:00,
2014-03-23 15:15:00,61.8,49.5,30.12,NNE,18,5.0,7.0,64,0.00,,,0.00,VWS V15.00,2014-03-23 20:15:00,
2014-03-23 15:18:00,61.5,49.2,30.12,NNW,340,1.0,7.0,64,0.00,,,0.00,VWS V15.00,2014-03-23 20:18:00,
2014-03-23 15:19:00,61.5,49.2,30.12,NNW,344,4.0,7.0,64,0.00,,,0.00,VWS V15.00,2014-03-23 20:19:00,
2014-03-23 15:20:00,61.4,49.1,30.12,North,5,6.0,7.0,64,0.00,,,0.00,VWS V15.00,2014-03-23 20:20:00,
2014-03-23 15:24:00,60.9,49.1,30.12,SE,124,4.0,7.0,65,0.00,,,0.00,VWS V15.00,2014-03-23 20:24:00,
2014-03-23 15:25:00,60.8,49.0,30.12,North,5,2.0,7.0,65,0.00,,,0.00,VWS V15.00,2014-03-23 20:25:00,
2014-03-23 15:26:00,60.7,48.9,30.12,East,86,2.0,7.0,65,0.00,,,0.00,VWS V15.00,2014-03-23 20:26:00,
2014-03-23 15:30:00,60.4,48.6,30.12,North,355,3.0,3.0,65,0.00,,,0.00,VWS V15.00,2014-03-23 20:30:00,
2014-03-23 15:31:00,60.3,48.5,30.12,North,351,0.0,3.0,65,0.00,,,0.00,VWS V15.00,2014-03-23 20:31:00,
2014-03-23 15:32:00,60.2,48.8,30.12,NNE,13,2.0,5.0,66,0.00,,,0.00,VWS V15.00,2014-03-23 20:32:00,
2014-03-23 15:35:00,60.1,48.3,30.13,North,5,6.0,7.0,65,0.00,,,0.00,VWS V15.00,2014-03-23 20:35:00,
2014-03-23 15:36:00,60.1,48.3,30.13,North,355,7.0,8.0,65,0.00,,,0.00,VWS V15.00,2014-03-23 20:36:00,
2014-03-23 15:37:00,60.0,48.6,30.12,North,350,10.0,10.0,66,0.00,,,0.00,VWS V15.00,2014-03-23 20:37:00,
2014-03-23 15:40:00,59.8,48.4,30.12,NNW,333,3.0,10.0,66,0.00,,,0.00,VWS V15.00,2014-03-23 20:40:00,
2014-03-23 15:41:00,59.8,48.4,30.12,NNW,338,2.0,10.0,66,0.00,,,0.00,VWS V15.00,2014-03-23 20:41:00,
2014-03-23 15:42:00,59.7,48.3,30.12,North,349,3.0,10.0,66,0.00,,,0.00,VWS V15.00,2014-03-23 20:42:00,
2014-03-23 15:45:00,59.8,49.2,30.11,North,355,6.0,10.0,68,0.00,,,0.00,VWS V15.00,2014-03-23 20:45:00,
2014-03-23 15:46:00,59.8,49.6,30.12,ENE,75,4.0,10.0,69,0.00,,,0.00,VWS V15.00,2014-03-23 20:46:00,
2014-03-23 15:47:00,59.8,49.6,30.11,NNE,13,3.0,10.0,69,0.00,,,0.00,VWS V15.00,2014-03-23 20:47:00,
2014-03-23 15:48:00,59.8,49.6,30.11,North,10,3.0,10.0,69,0.00,,,0.00,VWS V15.00,2014-03-23 20:48:00,
2014-03-23 15:50:00,59.7,49.5,30.11,West,270,3.0,10.0,69,0.00,,,0.00,VWS V15.00,2014-03-23 20:50:00,
2014-03-23 15:51:00,59.7,49.5,30.11,North,355,3.0,10.0,69,0.00,,,0.00,VWS V15.00,2014-03-23 20:51:00,
2014-03-23 15:52:00,59.7,49.5,30.11,NNW,339,4.0,10.0,69,0.00,,,0.00,VWS V15.00,2014-03-23 20:52:00,
2014-03-23 15:53:00,59.6,49.4,30.11,NNW,340,3.0,10.0,69,0.00,,,0.00,VWS V15.00,2014-03-23 20:53:00,
2014-03-23 15:56:00,59.6,49.0,30.11,North,10,3.0,10.0,68,0.00,,,0.00,VWS V15.00,2014-03-23 20:56:00,
2014-03-23 15:57:00,59.6,48.6,30.11,North,355,0.0,10.0,67,0.00,,,0.00,VWS V15.00,2014-03-23 20:57:00,
2014-03-23 15:58:00,59.7,49.1,30.11,North,355,0.0,10.0,68,0.00,,,0.00,VWS V15.00,2014-03-23 20:58:00,
2014-03-23 16:01:00,60.0,49.4,30.11,North,350,3.0,7.0,68,0.00,,,0.00,VWS V15.00,2014-03-23 21:01:00,
2014-03-23 16:02:00,60.1,49.5,30.11,NNW,346,2.0,7.0,68,0.00,,,0.00,VWS V15.00,2014-03-23 21:02:00,
2014-03-23 16:03:00,60.2,49.6,30.11,NNW,348,0.0,7.0,68,0.00,,,0.00,VWS V15.00,2014-03-23 21:03:00,
2014-03-23 16:04:00,60.3,49.7,30.11,North,11,3.0,7.0,68,0.00,,,0.00,VWS V15.00,2014-03-23 21:04:00,
2014-03-23 16:06:00,60.4,49.0,30.11,North,5,3.0,7.0,66,0.00,,,0.00,VWS V15.00,2014-03-23 21:06:00,
2014-03-23 16:07:00,60.5,49.1,30.11,North,5,3.0,7.0,66,0.00,,,0.00,VWS V15.00,2014-03-23 21:07:00,
2014-03-23 16:08:00,60.4,49.0,30.11,North,360,4.0,7.0,66,0.00,,,0.00,VWS V15.00,2014-03-23 21:08:00,
2014-03-23 16:09:00,60.4,49.0,30.11,NNE,16,3.0,7.0,66,0.00,,,0.00,VWS V15.00,2014-03-23 21:09:00,
2014-03-23 16:11:00,60.3,48.9,30.12,NNE,33,1.0,7.0,66,0.00,,,0.00,VWS V15.00,2014-03-23 21:11:00,
2014-03-23 16:12:00,60.2,48.8,30.12,NNW,330,1.0,7.0,66,0.00,,,0.00,VWS V15.00,2014-03-23 21:12:00,
2014-03-23 16:14:00,60.1,48.7,30.12,NNW,331,4.0,7.0,66,0.00,,,0.00,VWS V15.00,2014-03-23 21:14:00,
2014-03-23 16:16:00,59.7,48.3,30.11,North,5,4.0,10.0,66,0.00,,,0.00,VWS V15.00,2014-03-23 21:16:00,
2014-03-23 16:17:00,59.8,48.4,30.11,North,5,3.0,10.0,66,0.00,,,0.00,VWS V15.00,2014-03-23 21:17:00,
2014-03-23 16:19:00,59.5,48.2,30.11,North,355,1.0,10.0,66,0.00,,,0.00,VWS V15.00,2014-03-23 21:19:00,
2014-03-23 16:21:00,59.3,48.4,30.11,NNW,336,1.0,10.0,67,0.00,,,0.00,VWS V15.00,2014-03-23 21:21:00,
2014-03-23 16:22:00,59.3,48.4,30.11,NNE,15,4.0,10.0,67,0.00,,,0.00,VWS V15.00,2014-03-23 21:22:00,
2014-03-23 16:23:00,59.2,48.3,30.11,NW,321,4.0,10.0,67,0.00,,,0.00,VWS V15.00,2014-03-23 21:23:00,
2014-03-23 16:24:00,59.1,48.6,30.11,North,355,1.0,10.0,68,0.00,,,0.00,VWS V15.00,2014-03-23 21:24:00,
2014-03-23 16:26:00,59.2,48.7,30.11,North,5,2.0,10.0,68,0.00,,,0.00,VWS V15.00,2014-03-23 21:26:00,
2014-03-23 16:27:00,59.2,48.7,30.11,North,355,3.0,10.0,68,0.00,,,0.00,VWS V15.00,2014-03-23 21:27:00,
2014-03-23 16:28:00,59.2,48.7,30.11,North,360,2.0,10.0,68,0.00,,,0.00,VWS V15.00,2014-03-23 21:28:00,
2014-03-23 16:29:00,59.4,49.2,30.11,NNE,13,0.0,5.0,69,0.00,,,0.00,VWS V15.00,2014-03-23 21:29:00,
2014-03-23 16:30:00,59.4,49.2,30.11,North,5,3.0,5.0,69,0.00,,,0.00,VWS V15.00,2014-03-23 21:30:00,
2014-03-23 16:32:00,59.6,49.0,30.11,North,360,1.0,7.0,68,0.00,,,0.00,VWS V15.00,2014-03-23 21:32:00,
2014-03-23 16:33:00,59.6,48.6,30.11,North,360,2.0,7.0,67,0.00,,,0.00,VWS V15.00,2014-03-23 21:33:00,
2014-03-23 16:34:00,59.7,49.1,30.12,WNW,292,3.0,7.0,68,0.00,,,0.00,VWS V15.00,2014-03-23 21:34:00,
2014-03-23 16:35:00,59.7,49.1,30.12,NW,309,3.0,7.0,68,0.00,,,0.00,VWS V15.00,2014-03-23 21:35:00,
2014-03-23 16:37:00,59.7,48.7,30.11,NNW,341,2.0,7.0,67,0.00,,,0.00,VWS V15.00,2014-03-23 21:37:00,
2014-03-23 16:38:00,59.7,48.7,30.11,NNW,338,1.0,7.0,67,0.00,,,0.00,VWS V15.00,2014-03-23 21:38:00,
2014-03-23 16:39:00,59.7,48.7,30.11,NNW,348,5.0,7.0,67,0.00,,,0.00,VWS V15.00,2014-03-23 21:39:00,
2014-03-23 16:40:00,59.7,48.3,30.11,North,5,3.0,7.0,66,0.00,,,0.00,VWS V15.00,2014-03-23 21:40:00,
2014-03-23 16:41:00,59.7,48.3,30.11,North,349,4.0,7.0,66,0.00,,,0.00,VWS V15.00,2014-03-23 21:41:00,
2014-03-23 16:42:00,59.6,48.6,30.11,NNW,348,3.0,7.0,67,0.00,,,0.00,VWS V15.00,2014-03-23 21:42:00,
2014-03-23 16:43:00,59.6,48.6,30.11,North,5,2.0,7.0,67,0.00,,,0.00,VWS V15.00,2014-03-23 21:43:00,
2014-03-23 16:44:00,59.6,48.2,30.11,NNW,333,2.0,7.0,66,0.00,,,0.00,VWS V15.00,2014-03-23 21:44:00,
2014-03-23 16:45:00,59.5,48.2,30.11,NNE,16,2.0,7.0,66,0.00,,,0.00,VWS V15.00,2014-03-23 21:45:00,
2014-03-23 16:46:00,59.4,48.0,30.11,North,5,3.0,7.0,66,0.00,,,0.00,VWS V15.00,2014-03-23 21:46:00,
2014-03-23 16:47:00,59.2,47.9,30.11,North,5,4.0,7.0,66,0.00,,,0.00,VWS V15.00,2014-03-23 21:47:00,
2014-03-23 16:48:00,59.3,48.0,30.11,North,5,3.0,7.0,66,0.00,,,0.00,VWS V15.00,2014-03-23 21:48:00,
2014-03-23 16:49:00,59.2,47.9,30.11,NNW,338,0.0,7.0,66,0.00,,,0.00,VWS V15.00,2014-03-23 21:49:00,
2014-03-23 16:50:00,59.1,48.2,30.12,NNW,329,6.0,7.0,67,0.00,,,0.00,VWS V15.00,2014-03-23 21:50:00,
2014-03-23 16:51:00,59.1,48.2,30.12,NNW,336,2.0,7.0,67,0.00,,,0.00,VWS V15.00,2014-03-23 21:51:00,
2014-03-23 16:52:00,59.0,47.7,30.12,North,355,3.0,7.0,66,0.00,,,0.00,VWS V15.00,2014-03-23 21:52:00,
2014-03-23 16:53:00,59.0,47.7,30.12,NNW,342,2.0,7.0,66,0.00,,,0.00,VWS V15.00,2014-03-23 21:53:00,
2014-03-23 16:54:00,58.9,47.6,30.12,North,355,1.0,7.0,66,0.00,,,0.00,VWS V15.00,2014-03-23 21:54:00,
2014-03-23 16:55:00,58.9,47.6,30.12,North,360,5.0,7.0,66,0.00,,,0.00,VWS V15.00,2014-03-23 21:55:00,
2014-03-23 16:56:00,58.8,47.9,30.12,North,5,2.0,7.0,67,0.00,,,0.00,VWS V15.00,2014-03-23 21:56:00,
2014-03-23 16:57:00,58.8,47.9,30.12,North,5,2.0,7.0,67,0.00,,,0.00,VWS V15.00,2014-03-23 21:57:00,
2014-03-23 16:58:00,58.8,47.9,30.12,North,10,2.0,7.0,67,0.00,,,0.00,VWS V15.00,2014-03-23 21:58:00,
2014-03-23 16:59:00,58.7,47.8,30.12,North,5,2.0,4.0,67,0.00,,,0.00,VWS V15.00,2014-03-23 21:59:00,
2014-03-23 17:01:00,58.6,47.7,30.12,NNE,24,3.0,6.0,67,0.00,,,0.00,VWS V15.00,2014-03-23 22:01:00,
2014-03-23 17:02:00,58.6,47.7,30.12,ENE,65,2.0,8.0,67,0.00,,,0.00,VWS V15.00,2014-03-23 22:02:00,
2014-03-23 17:03:00,58.6,47.7,30.12,West,262,0.0,8.0,67,0.00,,,0.00,VWS V15.00,2014-03-23 22:03:00,
2014-03-23 17:05:00,58.5,47.6,30.12,NNE,14,0.0,8.0,67,0.00,,,0.00,VWS V15.00,2014-03-23 22:05:00,
2014-03-23 17:06:00,58.5,47.6,30.12,North,5,2.0,8.0,67,0.00,,,0.00,VWS V15.00,2014-03-23 22:06:00,
2014-03-23 17:08:00,58.4,47.5,30.12,North,5,4.0,8.0,67,0.00,,,0.00,VWS V15.00,2014-03-23 22:08:00,
2014-03-23 17:10:00,58.4,47.5,30.12,NNE,12,0.0,8.0,67,0.00,,,0.00,VWS V15.00,2014-03-23 22:10:00,
2014-03-23 17:11:00,58.4,47.5,30.12,NNE,19,2.0,8.0,67,0.00,,,0.00,VWS V15.00,2014-03-23 22:11:00,
2014-03-23 17:13:00,58.4,47.5,30.12,NNE,22,4.0,8.0,67,0.00,,,0.00,VWS V15.00,2014-03-23 22:13:00,
2014-03-23 17:14:00,58.3,47.8,30.12,East,81,2.0,8.0,68,0.00,,,0.00,VWS V15.00,2014-03-23 22:14:00,
2014-03-23 17:15:00,58.3,47.8,30.12,North,355,5.0,8.0,68,0.00,,,0.00,VWS V15.00,2014-03-23 22:15:00,
2014-03-23 17:16:00,58.2,47.7,30.13,NE,34,0.0,8.0,68,0.00,,,0.00,VWS V15.00,2014-03-23 22:16:00,
2014-03-23 17:18:00,58.2,47.7,30.13,NNE,13,4.0,8.0,68,0.00,,,0.00,VWS V15.00,2014-03-23 22:18:00,
2014-03-23 17:19:00,58.2,47.7,30.13,NNW,345,0.0,8.0,68,0.00,,,0.00,VWS V15.00,2014-03-23 22:19:00,
2014-03-23 17:20:00,58.1,47.6,30.13,North,355,3.0,8.0,68,0.00,,,0.00,VWS V15.00,2014-03-23 22:20:00,
2014-03-23 17:21:00,58.1,47.6,30.13,North,360,3.0,8.0,68,0.00,,,0.00,VWS V15.00,2014-03-23 22:21:00,
2014-03-23 17:22:00,58.1,47.6,30.13,NNE,17,2.0,8.0,68,0.00,,,0.00,VWS V15.00,2014-03-23 22:22:00,
2014-03-23 17:23:00,58.1,47.6,30.13,North,355,3.0,8.0,68,0.00,,,0.00,VWS V15.00,2014-03-23 22:23:00,
2014-03-23 17:24:00,58.0,47.5,30.13,NNE,18,2.0,8.0,68,0.00,,,0.00,VWS V15.00,2014-03-23 22:24:00,
2014-03-23 17:26:00,58.0,47.5,30.13,North,355,2.0,8.0,68,0.00,,,0.00,VWS V15.00,2014-03-23 22:26:00,
2014-03-23 17:27:00,58.0,47.5,30.13,NNE,18,2.0,8.0,68,0.00,,,0.00,VWS V15.00,2014-03-23 22:27:00,
2014-03-23 17:28:00,57.9,47.4,30.12,NNE,14,2.0,8.0,68,0.00,,,0.00,VWS V15.00,2014-03-23 22:28:00,
2014-03-23 17:29:00,57.9,47.4,30.13,NW,311,0.0,4.0,68,0.00,,,0.00,VWS V15.00,2014-03-23 22:29:00,
2014-03-23 17:31:00,57.9,47.4,30.13,North,355,3.0,5.0,68,0.00,,,0.00,VWS V15.00,2014-03-23 22:31:00,
2014-03-23 17:32:00,57.9,47.4,30.13,NW,309,4.0,6.0,68,0.00,,,0.00,VWS V15.00,2014-03-23 22:32:00,
2014-03-23 17:33:00,57.8,47.3,30.13,NNE,19,2.0,6.0,68,0.00,,,0.00,VWS V15.00,2014-03-23 22:33:00,
2014-03-23 17:34:00,57.8,47.3,30.13,NE,49,1.0,6.0,68,0.00,,,0.00,VWS V15.00,2014-03-23 22:34:00,
2014-03-23 17:35:00,57.8,47.3,30.13,NNE,17,2.0,6.0,68,0.00,,,0.00,VWS V15.00,2014-03-23 22:35:00,
2014-03-23 17:36:00,57.8,47.3,30.13,North,5,1.0,6.0,68,0.00,,,0.00,VWS V15.00,2014-03-23 22:36:00,
2014-03-23 17:37:00,57.8,47.3,30.13,NNW,341,4.0,6.0,68,0.00,,,0.00,VWS V15.00,2014-03-23 22:37:00,
2014-03-23 17:38:00,57.8,47.3,30.13,NNW,348,0.0,6.0,68,0.00,,,0.00,VWS V15.00,2014-03-23 22:38:00,
2014-03-23 17:39:00,57.8,47.3,30.13,NNW,346,1.0,6.0,68,0.00,,,0.00,VWS V15.00,2014-03-23 22:39:00,
2014-03-23 17:40:00,57.8,47.3,30.13,North,360,1.0,6.0,68,0.00,,,0.00,VWS V15.00,2014-03-23 22:40:00,
2014-03-23 17:42:00,57.8,47.3,30.13,North,355,4.0,6.0,68,0.00,,,0.00,VWS V15.00,2014-03-23 22:42:00,
2014-03-23 17:43:00,57.8,46.9,30.14,North,5,1.0,6.0,67,0.00,,,0.00,VWS V15.00,2014-03-23 22:43:00,
2014-03-23 17:44:00,57.7,46.8,30.14,NNE,12,2.0,6.0,67,0.00,,,0.00,VWS V15.00,2014-03-23 22:44:00,
2014-03-23 17:45:00,57.7,46.8,30.14,North,355,3.0,6.0,67,0.00,,,0.00,VWS V15.00,2014-03-23 22:45:00,
2014-03-23 17:47:00,57.7,46.8,30.14,NNW,332,2.0,7.0,67,0.00,,,0.00,VWS V15.00,2014-03-23 22:47:00,
2014-03-23 17:49:00,57.7,46.8,30.13,North,5,0.0,7.0,67,0.00,,,0.00,VWS V15.00,2014-03-23 22:49:00,
2014-03-23 17:50:00,57.7,47.2,30.13,NNE,30,2.0,7.0,68,0.00,,,0.00,VWS V15.00,2014-03-23 22:50:00,
2014-03-23 17:52:00,57.7,47.2,30.13,NNE,12,0.0,7.0,68,0.00,,,0.00,VWS V15.00,2014-03-23 22:52:00,
2014-03-23 17:54:00,57.7,46.8,30.13,NNE,27,1.0,7.0,67,0.00,,,0.00,VWS V15.00,2014-03-23 22:54:00,
2014-03-23 17:55:00,57.6,46.7,30.14,North,351,2.0,7.0,67,0.00,,,0.00,VWS V15.00,2014-03-23 22:55:00,
2014-03-23 17:56:00,57.6,46.7,30.14,NNW,347,0.0,7.0,67,0.00,,,0.00,VWS V15.00,2014-03-23 22:56:00,
2014-03-23 17:57:00,57.6,46.7,30.14,North,350,2.0,7.0,67,0.00,,,0.00,VWS V15.00,2014-03-23 22:57:00,
2014-03-23 17:59:00,57.6,46.7,30.14,NW,321,1.0,3.0,67,0.00,,,0.00,VWS V15.00,2014-03-23 22:59:00,
2014-03-23 18:00:00,57.6,46.7,30.14,North,355,3.0,4.0,67,0.00,,,0.00,VWS V15.00,2014-03-23 23:00:00,
2014-03-23 18:01:00,57.6,46.7,30.14,NNW,331,0.0,4.0,67,0.00,,,0.00,VWS V15.00,2014-03-23 23:01:00,
2014-03-23 18:03:00,57.6,46.7,30.14,North,5,0.0,4.0,67,0.00,,,0.00,VWS V15.00,2014-03-23 23:03:00,
2014-03-23 18:04:00,57.6,46.7,30.14,NNW,340,0.0,4.0,67,0.00,,,0.00,VWS V15.00,2014-03-23 23:04:00,
2014-03-23 18:05:00,57.6,46.7,30.14,NNW,340,0.0,4.0,67,0.00,,,0.00,VWS V15.00,2014-03-23 23:05:00,
2014-03-23 18:06:00,57.6,46.7,30.14,NNW,340,1.0,4.0,67,0.00,,,0.00,VWS V15.00,2014-03-23 23:06:00,
2014-03-23 18:11:00,57.5,46.6,30.14,North,5,3.0,4.0,67,0.00,,,0.00,VWS V15.00,2014-03-23 23:11:00,
2014-03-23 18:12:00,57.5,46.6,30.14,North,5,2.0,4.0,67,0.00,,,0.00,VWS V15.00,2014-03-23 23:12:00,
2014-03-23 18:16:00,57.4,46.5,30.14,North,5,2.0,6.0,67,0.00,,,0.00,VWS V15.00,2014-03-23 23:16:00,
2014-03-23 18:17:00,57.4,46.5,30.13,North,5,0.0,6.0,67,0.00,,,0.00,VWS V15.00,2014-03-23 23:17:00,
2014-03-23 18:21:00,57.3,46.5,30.14,NNE,14,0.0,6.0,67,0.00,,,0.00,VWS V15.00,2014-03-23 23:21:00,
2014-03-23 18:22:00,57.3,46.8,30.14,NNE,14,0.0,6.0,68,0.00,,,0.00,VWS V15.00,2014-03-23 23:22:00,
2014-03-23 18:26:00,57.4,46.5,30.14,ENE,70,4.0,6.0,67,0.00,,,0.00,VWS V15.00,2014-03-23 23:26:00,
2014-03-23 18:27:00,57.4,46.5,30.14,NNE,12,0.0,6.0,67,0.00,,,0.00,VWS V15.00,2014-03-23 23:27:00,
2014-03-23 18:28:00,57.4,46.5,30.14,NNE,19,1.0,6.0,67,0.00,,,0.00,VWS V15.00,2014-03-23 23:28:00,
2014-03-23 18:31:00,57.5,46.6,30.14,NNW,340,0.0,4.0,67,0.00,,,0.00,VWS V15.00,2014-03-23 23:31:00,
2014-03-23 18:32:00,57.5,46.6,30.14,NNW,340,0.0,4.0,67,0.00,,,0.00,VWS V15.00,2014-03-23 23:32:00,
2014-03-23 18:33:00,57.6,46.7,30.15,NNW,331,0.0,4.0,67,0.00,,,0.00,VWS V15.00,2014-03-23 23:33:00,
2014-03-23 18:36:00,57.7,45.6,30.15,North,5,0.0,4.0,64,0.00,,,0.00,VWS V15.00,2014-03-23 23:36:00,
2014-03-23 18:37:00,57.7,45.6,30.15,North,5,0.0,4.0,64,0.00,,,0.00,VWS V15.00,2014-03-23 23:37:00,
2014-03-23 18:38:00,57.7,45.6,30.14,North,5,0.0,4.0,64,0.00,,,0.00,VWS V15.00,2014-03-23 23:38:00,
2014-03-23 18:50:00,57.4,44.5,30.15,North,355,0.0,6.0,62,0.00,,,0.00,VWS V15.00,2014-03-23 23:50:00,
2014-03-23 18:51:00,57.4,44.5,30.15,North,355,0.0,6.0,62,0.00,,,0.00,VWS V15.00,2014-03-23 23:51:00,
2014-03-23 18:55:00,57.3,44.4,30.16,North,5,1.0,6.0,62,0.00,,,0.00,VWS V15.00,2014-03-23 23:55:00,
2014-03-23 18:56:00,57.3,44.4,30.16,North,10,5.0,6.0,62,0.00,,,0.00,VWS V15.00,2014-03-23 23:56:00,
2014-03-23 19:00:00,57.1,43.8,30.15,NNW,348,1.0,5.0,61,0.00,,,0.00,VWS V15.00,2014-03-24 00:00:00,
2014-03-23 19:01:00,57.1,43.8,30.15,NNW,348,2.0,5.0,61,0.00,,,0.00,VWS V15.00,2014-03-24 00:01:00,
2014-03-23 19:02:00,57.1,44.2,30.15,North,9,2.0,5.0,62,0.00,,,0.00,VWS V15.00,2014-03-24 00:02:00,
2014-03-23 19:05:00,56.8,43.5,30.16,WNW,293,5.0,6.0,61,0.00,,,0.00,VWS V15.00,2014-03-24 00:05:00,
2014-03-23 19:06:00,56.8,43.5,30.16,West,274,3.0,6.0,61,0.00,,,0.00,VWS V15.00,2014-03-24 00:06:00,
2014-03-23 19:08:00,56.6,42.5,30.16,North,355,3.0,7.0,59,0.00,,,0.00,VWS V15.00,2014-03-24 00:08:00,
2014-03-23 19:10:00,56.0,41.9,30.15,NNW,335,0.0,9.0,59,0.00,,,0.00,VWS V15.00,2014-03-24 00:10:00,
2014-03-23 19:11:00,56.0,41.9,30.15,NNW,335,1.0,9.0,59,0.00,,,0.00,VWS V15.00,2014-03-24 00:11:00,
2014-03-23 19:12:00,55.7,41.6,30.16,NW,311,0.0,9.0,59,0.00,,,0.00,VWS V15.00,2014-03-24 00:12:00,
2014-03-23 19:14:00,55.5,41.4,30.16,NW,311,0.0,9.0,59,0.00,,,0.00,VWS V15.00,2014-03-24 00:14:00,
2014-03-23 19:16:00,55.3,41.2,30.16,North,5,0.0,9.0,59,0.00,,,0.00,VWS V15.00,2014-03-24 00:16:00,
2014-03-23 19:17:00,55.1,41.5,30.15,West,268,2.0,9.0,60,0.00,,,0.00,VWS V15.00,2014-03-24 00:17:00,
2014-03-23 19:18:00,54.9,40.9,30.16,West,279,5.0,9.0,59,0.00,,,0.00,VWS V15.00,2014-03-24 00:18:00,
2014-03-23 19:19:00,54.7,41.1,30.16,WNW,292,6.0,9.0,60,0.00,,,0.00,VWS V15.00,2014-03-24 00:19:00,
2014-03-23 19:21:00,54.4,40.8,30.16,NW,312,3.0,11.0,60,0.00,,,0.00,VWS V15.00,2014-03-24 00:21:00,
2014-03-23 19:22:00,54.2,40.6,30.16,NNE,17,3.0,11.0,60,0.00,,,0.00,VWS V15.00,2014-03-24 00:22:00,
2014-03-23 19:23:00,53.9,40.8,30.16,West,267,5.0,11.0,61,0.00,,,0.00,VWS V15.00,2014-03-24 00:23:00,
2014-03-23 19:24:00,53.8,40.7,30.16,WNW,296,2.0,11.0,61,0.00,,,0.00,VWS V15.00,2014-03-24 00:24:00,
2014-03-23 19:26:00,53.6,40.5,30.16,NNW,344,4.0,11.0,61,0.00,,,0.00,VWS V15.00,2014-03-24 00:26:00,
2014-03-23 19:27:00,53.6,40.5,30.16,WNW,300,10.0,11.0,61,0.00,,,0.00,VWS V15.00,2014-03-24 00:27:00,
2014-03-23 19:29:00,53.3,40.6,30.16,NNW,348,2.0,8.0,62,0.00,,,0.00,VWS V15.00,2014-03-24 00:29:00,
2014-03-23 19:31:00,53.1,40.4,30.16,West,278,0.0,8.0,62,0.00,,,0.00,VWS V15.00,2014-03-24 00:31:00,
2014-03-23 19:32:00,53.0,40.3,30.16,North,5,0.0,8.0,62,0.00,,,0.00,VWS V15.00,2014-03-24 00:32:00,
2014-03-23 19:34:00,52.8,40.6,30.16,NNW,329,0.0,9.0,63,0.00,,,0.00,VWS V15.00,2014-03-24 00:34:00,
2014-03-23 19:35:00,52.8,40.6,30.16,NW,323,0.0,9.0,63,0.00,,,0.00,VWS V15.00,2014-03-24 00:35:00,
2014-03-23 19:36:00,52.7,40.5,30.17,North,350,1.0,9.0,63,0.00,,,0.00,VWS V15.00,2014-03-24 00:36:00,
2014-03-23 19:37:00,52.7,40.5,30.17,North,350,1.0,9.0,63,0.00,,,0.00,VWS V15.00,2014-03-24 00:37:00,
2014-03-23 19:41:00,52.6,40.4,30.17,WNW,283,0.0,9.0,63,0.00,,,0.00,VWS V15.00,2014-03-24 00:41:00,
2014-03-23 19:42:00,52.5,40.7,30.16,NW,322,3.0,9.0,64,0.00,,,0.00,VWS V15.00,2014-03-24 00:42:00,
2014-03-23 19:43:00,52.5,40.7,30.16,NW,321,3.0,9.0,64,0.00,,,0.00,VWS V15.00,2014-03-24 00:43:00,
2014-03-23 19:46:00,52.4,40.6,30.17,WNW,302,0.0,9.0,64,0.00,,,0.00,VWS V15.00,2014-03-24 00:46:00,
2014-03-23 19:48:00,52.3,40.9,30.17,WNW,294,0.0,9.0,65,0.00,,,0.00,VWS V15.00,2014-03-24 00:48:00,
2014-03-23 19:51:00,52.2,40.8,30.17,North,360,2.0,9.0,65,0.00,,,0.00,VWS V15.00,2014-03-24 00:51:00,
2014-03-23 19:52:00,52.1,40.3,30.17,East,101,3.0,9.0,64,0.00,,,0.00,VWS V15.00,2014-03-24 00:52:00,
2014-03-23 19:53:00,52.1,40.3,30.17,North,355,2.0,9.0,64,0.00,,,0.00,VWS V15.00,2014-03-24 00:53:00,
2014-03-23 19:56:00,51.8,40.4,30.17,North,360,1.0,9.0,65,0.00,,,0.00,VWS V15.00,2014-03-24 00:56:00,
2014-03-23 19:57:00,51.8,40.4,30.17,NW,313,2.0,9.0,65,0.00,,,0.00,VWS V15.00,2014-03-24 00:57:00,
2014-03-23 19:58:00,51.7,40.3,30.17,NW,313,1.0,9.0,65,0.00,,,0.00,VWS V15.00,2014-03-24 00:58:00,
2014-03-23 19:59:00,51.6,40.6,30.17,WNW,303,1.0,4.0,66,0.00,,,0.00,VWS V15.00,2014-03-24 00:59:00,
2014-03-23 20:02:00,51.5,40.5,30.17,NW,307,1.0,4.0,66,0.00,,,0.00,VWS V15.00,2014-03-24 01:02:00,
2014-03-23 20:03:00,51.4,40.4,30.17,NNW,347,2.0,4.0,66,0.00,,,0.00,VWS V15.00,2014-03-24 01:03:00,
2014-03-23 20:05:00,51.3,40.3,30.17,North,5,6.0,7.0,66,0.00,,,0.00,VWS V15.00,2014-03-24 01:05:00,
2014-03-23 20:07:00,51.2,40.2,30.17,NNW,337,0.0,7.0,66,0.00,,,0.00,VWS V15.00,2014-03-24 01:07:00,
2014-03-23 20:08:00,51.2,40.2,30.17,NNW,337,0.0,7.0,66,0.00,,,0.00,VWS V15.00,2014-03-24 01:08:00,
2014-03-23 20:09:00,51.2,40.6,30.17,NE,53,2.0,7.0,67,0.00,,,0.00,VWS V15.00,2014-03-24 01:09:00,
2014-03-23 20:10:00,51.1,40.2,30.18,North,351,6.0,7.0,66,0.00,,,0.00,VWS V15.00,2014-03-24 01:10:00,
2014-03-23 20:12:00,50.9,40.0,30.18,NW,322,3.0,7.0,66,0.00,,,0.00,VWS V15.00,2014-03-24 01:12:00,
2014-03-23 20:13:00,50.9,40.0,30.18,NW,322,3.0,7.0,66,0.00,,,0.00,VWS V15.00,2014-03-24 01:13:00,
2014-03-23 20:14:00,50.9,40.3,30.18,NNW,344,0.0,7.0,67,0.00,,,0.00,VWS V15.00,2014-03-24 01:14:00,
2014-03-23 20:15:00,50.8,39.9,30.18,NW,316,0.0,7.0,66,0.00,,,0.00,VWS V15.00,2014-03-24 01:15:00,
2014-03-23 20:17:00,50.8,40.2,30.18,NW,315,2.0,7.0,67,0.00,,,0.00,VWS V15.00,2014-03-24 01:17:00,
2014-03-23 20:18:00,50.7,40.2,30.18,NW,315,1.0,7.0,67,0.00,,,0.00,VWS V15.00,2014-03-24 01:18:00,
2014-03-23 20:19:00,50.7,40.2,30.18,NW,313,3.0,7.0,67,0.00,,,0.00,VWS V15.00,2014-03-24 01:19:00,
2014-03-23 20:20:00,50.6,40.1,30.18,North,355,1.0,7.0,67,0.00,,,0.00,VWS V15.00,2014-03-24 01:20:00,
2014-03-23 20:22:00,50.6,40.4,30.18,NW,319,2.0,7.0,68,0.00,,,0.00,VWS V15.00,2014-03-24 01:22:00,
2014-03-23 20:24:00,50.6,40.4,30.18,NNW,327,2.0,7.0,68,0.00,,,0.00,VWS V15.00,2014-03-24 01:24:00,
2014-03-23 20:25:00,50.5,40.3,30.18,NNW,336,1.0,7.0,68,0.00,,,0.00,VWS V15.00,2014-03-24 01:25:00,
2014-03-23 20:26:00,50.5,40.3,30.18,ENE,65,2.0,7.0,68,0.00,,,0.00,VWS V15.00,2014-03-24 01:26:00,
2014-03-23 20:28:00,50.4,40.2,30.17,NE,34,0.0,7.0,68,0.00,,,0.00,VWS V15.00,2014-03-24 01:28:00,
2014-03-23 20:29:00,50.4,40.2,30.17,NNE,21,1.0,7.0,68,0.00,,,0.00,VWS V15.00,2014-03-24 01:29:00,
2014-03-23 20:30:00,50.4,40.2,30.17,NNW,328,0.0,3.0,68,0.00,,,0.00,VWS V15.00,2014-03-24 01:30:00,
2014-03-23 20:31:00,50.3,40.2,30.17,NNW,340,1.0,6.0,68,0.00,,,0.00,VWS V15.00,2014-03-24 01:31:00,
2014-03-23 20:33:00,50.2,40.1,30.18,NNW,338,1.0,6.0,68,0.00,,,0.00,VWS V15.00,2014-03-24 01:33:00,
2014-03-23 20:34:00,50.2,40.1,30.18,NNW,338,2.0,6.0,68,0.00,,,0.00,VWS V15.00,2014-03-24 01:34:00,
2014-03-23 20:35:00,50.1,40.3,30.18,North,360,0.0,6.0,69,0.00,,,0.00,VWS V15.00,2014-03-24 01:35:00,
2014-03-23 20:36:00,50.1,40.3,30.18,NE,35,1.0,6.0,69,0.00,,,0.00,VWS V15.00,2014-03-24 01:36:00,
2014-03-23 20:37:00,50.1,40.3,30.18,NNE,33,2.0,6.0,69,0.00,,,0.00,VWS V15.00,2014-03-24 01:37:00,
2014-03-23 20:38:00,50.0,40.2,30.18,North,5,2.0,6.0,69,0.00,,,0.00,VWS V15.00,2014-03-24 01:38:00,
2014-03-23 20:39:00,50.0,40.2,30.18,North,5,4.0,6.0,69,0.00,,,0.00,VWS V15.00,2014-03-24 01:39:00,
2014-03-23 20:40:00,50.0,40.2,30.18,North,355,0.0,6.0,69,0.00,,,0.00,VWS V15.00,2014-03-24 01:40:00,
2014-03-23 20:41:00,49.9,40.2,30.18,NNW,347,2.0,6.0,69,0.00,,,0.00,VWS V15.00,2014-03-24 01:41:00,
2014-03-23 20:42:00,49.9,40.2,30.18,North,360,6.0,6.0,69,0.00,,,0.00,VWS V15.00,2014-03-24 01:42:00,
2014-03-23 20:43:00,49.9,40.2,30.17,North,350,4.0,6.0,69,0.00,,,0.00,VWS V15.00,2014-03-24 01:43:00,
2014-03-23 20:44:00,49.9,40.2,30.17,ENE,65,3.0,6.0,69,0.00,,,0.00,VWS V15.00,2014-03-24 01:44:00,
2014-03-23 20:45:00,49.9,40.2,30.17,NE,44,1.0,6.0,69,0.00,,,0.00,VWS V15.00,2014-03-24 01:45:00,
2014-03-23 20:46:00,49.8,40.4,30.17,North,351,3.0,6.0,70,0.00,,,0.00,VWS V15.00,2014-03-24 01:46:00,
2014-03-23 20:47:00,49.8,40.0,30.18,NNE,13,3.0,7.0,69,0.00,,,0.00,VWS V15.00,2014-03-24 01:47:00,
2014-03-23 20:48:00,49.8,40.0,30.18,NNE,18,0.0,7.0,69,0.00,,,0.00,VWS V15.00,2014-03-24 01:48:00,
2014-03-23 20:49:00,49.8,40.0,30.18,NNW,337,1.0,7.0,69,0.00,,,0.00,VWS V15.00,2014-03-24 01:49:00,
2014-03-23 20:50:00,49.7,40.3,30.18,North,351,1.0,7.0,70,0.00,,,0.00,VWS V15.00,2014-03-24 01:50:00,
2014-03-23 20:51:00,49.7,40.3,30.17,NW,323,0.0,7.0,70,0.00,,,0.00,VWS V15.00,2014-03-24 01:51:00,
2014-03-23 20:52:00,49.7,40.3,30.17,NNW,342,3.0,7.0,70,0.00,,,0.00,VWS V15.00,2014-03-24 01:52:00,
2014-03-23 20:53:00,49.7,40.3,30.18,SW,227,1.0,7.0,70,0.00,,,0.00,VWS V15.00,2014-03-24 01:53:00,
2014-03-23 20:54:00,49.7,40.3,30.18,North,355,0.0,7.0,70,0.00,,,0.00,VWS V15.00,2014-03-24 01:54:00,
2014-03-23 20:55:00,49.6,40.2,30.18,NNW,336,2.0,7.0,70,0.00,,,0.00,VWS V15.00,2014-03-24 01:55:00,
2014-03-23 20:56:00,49.6,40.2,30.18,WNW,282,1.0,7.0,70,0.00,,,0.00,VWS V15.00,2014-03-24 01:56:00,
2014-03-23 20:57:00,49.6,40.2,30.18,WNW,293,0.0,7.0,70,0.00,,,0.00,VWS V15.00,2014-03-24 01:57:00,
2014-03-23 20:58:00,49.6,40.2,30.18,NNW,348,4.0,6.0,70,0.00,,,0.00,VWS V15.00,2014-03-24 01:58:00,
2014-03-23 20:59:00,49.6,40.2,30.18,West,271,0.0,3.0,70,0.00,,,0.00,VWS V15.00,2014-03-24 01:59:00,
2014-03-23 21:01:00,49.5,40.1,30.19,NNW,343,0.0,6.0,70,0.00,,,0.00,VWS V15.00,2014-03-24 02:01:00,
2014-03-23 21:03:00,49.5,40.1,30.19,NNW,342,0.0,6.0,70,0.00,,,0.00,VWS V15.00,2014-03-24 02:03:00,
2014-03-23 21:04:00,49.5,40.1,30.18,NNW,344,2.0,6.0,70,0.00,,,0.00,VWS V15.00,2014-03-24 02:04:00,
2014-03-23 21:06:00,49.5,40.5,30.18,North,360,3.0,6.0,71,0.00,,,0.00,VWS V15.00,2014-03-24 02:06:00,
2014-03-23 21:08:00,49.4,40.4,30.18,North,351,4.0,6.0,71,0.00,,,0.00,VWS V15.00,2014-03-24 02:08:00,
2014-03-23 21:09:00,49.4,40.4,30.18,ESE,119,3.0,6.0,71,0.00,,,0.00,VWS V15.00,2014-03-24 02:09:00,
2014-03-23 21:10:00,49.4,40.4,30.18,NW,305,5.0,6.0,71,0.00,,,0.00,VWS V15.00,2014-03-24 02:10:00,
2014-03-23 21:11:00,49.4,40.4,30.19,NNW,342,0.0,6.0,71,0.00,,,0.00,VWS V15.00,2014-03-24 02:11:00,
2014-03-23 21:13:00,49.4,40.4,30.19,NW,321,1.0,6.0,71,0.00,,,0.00,VWS V15.00,2014-03-24 02:13:00,
2014-03-23 21:14:00,49.4,40.8,30.19,East,90,1.0,6.0,72,0.00,,,0.00,VWS V15.00,2014-03-24 02:14:00,
2014-03-23 21:16:00,49.4,40.8,30.19,NE,46,2.0,6.0,72,0.00,,,0.00,VWS V15.00,2014-03-24 02:16:00,
2014-03-23 21:18:00,49.4,40.4,30.18,NNE,16,2.0,7.0,71,0.00,,,0.00,VWS V15.00,2014-03-24 02:18:00,
2014-03-23 21:19:00,49.4,40.8,30.18,NNE,12,3.0,7.0,72,0.00,,,0.00,VWS V15.00,2014-03-24 02:19:00,
2014-03-23 21:22:00,49.4,40.8,30.19,NW,312,1.0,7.0,72,0.00,,,0.00,VWS V15.00,2014-03-24 02:22:00,
2014-03-23 21:24:00,49.3,40.7,30.19,NNW,342,1.0,8.0,72,0.00,,,0.00,VWS V15.00,2014-03-24 02:24:00,
2014-03-23 21:25:00,49.3,40.7,30.19,North,9,4.0,8.0,72,0.00,,,0.00,VWS V15.00,2014-03-24 02:25:00,
2014-03-23 21:27:00,49.3,40.7,30.19,North,351,2.0,8.0,72,0.00,,,0.00,VWS V15.00,2014-03-24 02:27:00,
2014-03-23 21:29:00,49.3,40.7,30.19,NW,312,5.0,5.0,72,0.00,,,0.00,VWS V15.00,2014-03-24 02:29:00,
2014-03-23 21:30:00,49.3,40.7,30.19,NNW,327,0.0,5.0,72,0.00,,,0.00,VWS V15.00,2014-03-24 02:30:00,
2014-03-23 21:32:00,49.3,40.7,30.19,NW,326,0.0,5.0,72,0.00,,,0.00,VWS V15.00,2014-03-24 02:32:00,
2014-03-23 21:33:00,49.3,41.0,30.19,NW,326,3.0,5.0,73,0.00,,,0.00,VWS V15.00,2014-03-24 02:33:00,
2014-03-23 21:34:00,49.3,40.7,30.19,North,5,6.0,7.0,72,0.00,,,0.00,VWS V15.00,2014-03-24 02:34:00,
2014-03-23 21:35:00,49.3,40.7,30.19,NNW,329,0.0,7.0,72,0.00,,,0.00,VWS V15.00,2014-03-24 02:35:00,
2014-03-23 21:36:00,49.3,40.7,30.19,NNW,329,3.0,7.0,72,0.00,,,0.00,VWS V15.00,2014-03-24 02:36:00,
2014-03-23 21:37:00,49.3,40.7,30.19,WSW,250,3.0,7.0,72,0.00,,,0.00,VWS V15.00,2014-03-24 02:37:00,
2014-03-23 21:39:00,49.3,41.0,30.19,NNW,341,2.0,7.0,73,0.00,,,0.00,VWS V15.00,2014-03-24 02:39:00,
2014-03-23 21:40:00,49.3,40.7,30.19,NNW,340,0.0,7.0,72,0.00,,,0.00,VWS V15.00,2014-03-24 02:40:00,
2014-03-23 21:41:00,49.3,40.7,30.19,NNW,340,0.0,7.0,72,0.00,,,0.00,VWS V15.00,2014-03-24 02:41:00,
2014-03-23 21:42:00,49.3,41.0,30.19,NNW,342,2.0,7.0,73,0.00,,,0.00,VWS V15.00,2014-03-24 02:42:00,
2014-03-23 21:44:00,49.3,41.0,30.19,NNW,343,3.0,7.0,73,0.00,,,0.00,VWS V15.00,2014-03-24 02:44:00,
2014-03-23 21:45:00,49.3,41.0,30.19,WNW,303,1.0,7.0,73,0.00,,,0.00,VWS V15.00,2014-03-24 02:45:00,
2014-03-23 21:46:00,49.3,41.0,30.19,North,360,3.0,7.0,73,0.00,,,0.00,VWS V15.00,2014-03-24 02:46:00,
2014-03-23 21:48:00,49.3,41.0,30.19,North,355,0.0,7.0,73,0.00,,,0.00,VWS V15.00,2014-03-24 02:48:00,
2014-03-23 21:49:00,49.3,41.0,30.19,NW,318,2.0,7.0,73,0.00,,,0.00,VWS V15.00,2014-03-24 02:49:00,
2014-03-23 21:50:00,49.2,40.9,30.19,NNW,344,2.0,7.0,73,0.00,,,0.00,VWS V15.00,2014-03-24 02:50:00,
2014-03-23 21:51:00,49.2,40.9,30.19,NNW,345,2.0,7.0,73,0.00,,,0.00,VWS V15.00,2014-03-24 02:51:00,
2014-03-23 21:53:00,49.2,40.9,30.19,NNW,334,1.0,7.0,73,0.00,,,0.00,VWS V15.00,2014-03-24 02:53:00,
2014-03-23 21:55:00,49.2,40.9,30.19,NW,317,2.0,7.0,73,0.00,,,0.00,VWS V15.00,2014-03-24 02:55:00,
2014-03-23 21:56:00,49.2,40.9,30.19,NW,317,2.0,7.0,73,0.00,,,0.00,VWS V15.00,2014-03-24 02:56:00,
2014-03-23 21:57:00,49.2,41.3,30.19,WNW,302,0.0,7.0,74,0.00,,,0.00,VWS V15.00,2014-03-24 02:57:00,
2014-03-23 21:58:00,49.2,41.3,30.20,NNW,328,0.0,7.0,74,0.00,,,0.00,VWS V15.00,2014-03-24 02:58:00,
2014-03-23 22:00:00,49.2,41.3,30.20,North,355,1.0,3.0,74,0.00,,,0.00,VWS V15.00,2014-03-24 03:00:00,
2014-03-23 22:01:00,49.2,41.3,30.20,North,355,1.0,3.0,74,0.00,,,0.00,VWS V15.00,2014-03-24 03:01:00,
2014-03-23 22:02:00,49.2,41.3,30.19,East,85,2.0,3.0,74,0.00,,,0.00,VWS V15.00,2014-03-24 03:02:00,
2014-03-23 22:04:00,49.2,41.3,30.19,NW,319,2.0,5.0,74,0.00,,,0.00,VWS V15.00,2014-03-24 03:04:00,
2014-03-23 22:05:00,49.2,41.3,30.20,NNE,13,0.0,5.0,74,0.00,,,0.00,VWS V15.00,2014-03-24 03:05:00,
2014-03-23 22:06:00,49.2,41.3,30.20,NNE,13,0.0,5.0,74,0.00,,,0.00,VWS V15.00,2014-03-24 03:06:00,
2014-03-23 22:07:00,49.2,41.3,30.20,NNE,13,1.0,5.0,74,0.00,,,0.00,VWS V15.00,2014-03-24 03:07:00,
2014-03-23 22:08:00,49.2,41.3,30.20,NW,306,1.0,5.0,74,0.00,,,0.00,VWS V15.00,2014-03-24 03:08:00,
2014-03-23 22:09:00,49.2,41.3,30.20,NW,310,0.0,5.0,74,0.00,,,0.00,VWS V15.00,2014-03-24 03:09:00,
2014-03-23 22:10:00,49.3,41.4,30.20,NW,311,1.0,5.0,74,0.00,,,0.00,VWS V15.00,2014-03-24 03:10:00,
2014-03-23 22:11:00,49.3,41.4,30.20,NW,311,0.0,5.0,74,0.00,,,0.00,VWS V15.00,2014-03-24 03:11:00,
2014-03-23 22:12:00,49.3,41.4,30.20,North,355,0.0,5.0,74,0.00,,,0.00,VWS V15.00,2014-03-24 03:12:00,
2014-03-23 22:13:00,49.3,41.4,30.20,North,355,2.0,5.0,74,0.00,,,0.00,VWS V15.00,2014-03-24 03:13:00,
2014-03-23 22:14:00,49.3,41.4,30.20,NNW,348,2.0,5.0,74,0.00,,,0.00,VWS V15.00,2014-03-24 03:14:00,
2014-03-23 22:15:00,49.3,41.4,30.20,NNW,343,1.0,5.0,74,0.00,,,0.00,VWS V15.00,2014-03-24 03:15:00,
2014-03-23 22:16:00,49.3,41.4,30.20,NNW,343,1.0,5.0,74,0.00,,,0.00,VWS V15.00,2014-03-24 03:16:00,
2014-03-23 22:18:00,49.3,41.4,30.20,NNW,343,0.0,5.0,74,0.00,,,0.00,VWS V15.00,2014-03-24 03:18:00,
2014-03-23 22:19:00,49.3,41.7,30.20,NNW,343,1.0,5.0,75,0.00,,,0.00,VWS V15.00,2014-03-24 03:19:00,
2014-03-23 22:20:00,49.3,41.4,30.20,East,91,0.0,5.0,74,0.00,,,0.00,VWS V15.00,2014-03-24 03:20:00,
2014-03-23 22:22:00,49.3,41.4,30.20,WSW,249,0.0,5.0,74,0.00,,,0.00,VWS V15.00,2014-03-24 03:22:00,
2014-03-23 22:23:00,49.3,41.7,30.21,WSW,250,0.0,5.0,75,0.00,,,0.00,VWS V15.00,2014-03-24 03:23:00,
2014-03-23 22:24:00,49.3,41.4,30.21,North,355,3.0,5.0,74,0.00,,,0.00,VWS V15.00,2014-03-24 03:24:00,
2014-03-23 22:25:00,49.3,41.4,30.21,NW,321,1.0,5.0,74,0.00,,,0.00,VWS V15.00,2014-03-24 03:25:00,
2014-03-23 22:27:00,49.3,41.4,30.21,ENE,74,0.0,5.0,74,0.00,,,0.00,VWS V15.00,2014-03-24 03:27:00,
2014-03-23 22:28:00,49.3,41.4,30.20,WSW,252,1.0,5.0,74,0.00,,,0.00,VWS V15.00,2014-03-24 03:28:00,
2014-03-23 22:29:00,49.3,41.4,30.20,WSW,252,0.0,0.0,74,0.00,,,0.00,VWS V15.00,2014-03-24 03:29:00,
2014-03-23 22:31:00,49.3,41.4,30.21,WNW,291,1.0,3.0,74,0.00,,,0.00,VWS V15.00,2014-03-24 03:31:00,
2014-03-23 22:32:00,49.3,41.7,30.21,North,360,0.0,3.0,75,0.00,,,0.00,VWS V15.00,2014-03-24 03:32:00,
2014-03-23 22:33:00,49.3,41.4,30.21,NNW,343,1.0,3.0,74,0.00,,,0.00,VWS V15.00,2014-03-24 03:33:00,
2014-03-23 22:34:00,49.3,41.4,30.21,North,355,2.0,4.0,74,0.00,,,0.00,VWS V15.00,2014-03-24 03:34:00,
2014-03-23 22:36:00,49.3,41.4,30.21,North,355,0.0,5.0,74,0.00,,,0.00,VWS V15.00,2014-03-24 03:36:00,
2014-03-23 22:37:00,49.3,41.4,30.21,North,355,1.0,5.0,74,0.00,,,0.00,VWS V15.00,2014-03-24 03:37:00,
2014-03-23 22:39:00,49.2,41.3,30.21,SSW,211,2.0,5.0,74,0.00,,,0.00,VWS V15.00,2014-03-24 03:39:00,
2014-03-23 22:40:00,49.2,41.3,30.21,NNW,342,3.0,5.0,74,0.00,,,0.00,VWS V15.00,2014-03-24 03:40:00,
2014-03-23 22:41:00,49.2,41.3,30.21,WNW,293,1.0,6.0,74,0.00,,,0.00,VWS V15.00,2014-03-24 03:41:00,
2014-03-23 22:42:00,49.2,41.3,30.21,NNW,344,0.0,6.0,74,0.00,,,0.00,VWS V15.00,2014-03-24 03:42:00,
2014-03-23 22:44:00,49.2,41.3,30.21,NW,323,0.0,6.0,74,0.00,,,0.00,VWS V15.00,2014-03-24 03:44:00,
2014-03-23 22:45:00,49.2,41.3,30.21,NW,306,0.0,6.0,74,0.00,,,0.00,VWS V15.00,2014-03-24 03:45:00,
2014-03-23 22:46:00,49.2,41.3,30.21,NW,319,2.0,6.0,74,0.00,,,0.00,VWS V15.00,2014-03-24 03:46:00,
2014-03-23 22:47:00,49.2,41.3,30.21,NNW,331,0.0,6.0,74,0.00,,,0.00,VWS V15.00,2014-03-24 03:47:00,
2014-03-23 22:49:00,49.2,41.3,30.22,North,355,1.0,6.0,74,0.00,,,0.00,VWS V15.00,2014-03-24 03:49:00,
2014-03-23 22:50:00,49.1,41.2,30.21,North,355,2.0,6.0,74,0.00,,,0.00,VWS V15.00,2014-03-24 03:50:00,
2014-03-23 22:51:00,49.1,41.2,30.21,NW,321,2.0,6.0,74,0.00,,,0.00,VWS V15.00,2014-03-24 03:51:00,
2014-03-23 22:53:00,49.1,41.2,30.21,NNW,345,4.0,6.0,74,0.00,,,0.00,VWS V15.00,2014-03-24 03:53:00,
2014-03-23 22:54:00,49.1,41.2,30.21,North,349,0.0,6.0,74,0.00,,,0.00,VWS V15.00,2014-03-24 03:54:00,
2014-03-23 22:55:00,49.1,41.2,30.21,North,349,0.0,6.0,74,0.00,,,0.00,VWS V15.00,2014-03-24 03:55:00,
2014-03-23 22:56:00,49.1,41.5,30.21,North,349,0.0,6.0,75,0.00,,,0.00,VWS V15.00,2014-03-24 03:56:00,
2014-03-23 22:58:00,49.1,41.5,30.21,North,349,0.0,0.0,75,0.00,,,0.00,VWS V15.00,2014-03-24 03:58:00,
2014-03-23 22:59:00,49.1,41.5,30.21,North,349,0.0,1.0,75,0.00,,,0.00,VWS V15.00,2014-03-24 03:59:00,
2014-03-23 23:01:00,49.1,41.5,30.21,NNW,346,0.0,1.0,75,0.00,,,0.00,VWS V15.00,2014-03-24 04:01:00,
2014-03-23 23:02:00,49.1,41.5,30.21,North,350,0.0,1.0,75,0.00,,,0.00,VWS V15.00,2014-03-24 04:02:00,
2014-03-23 23:06:00,49.2,41.6,30.21,NNE,12,0.0,3.0,75,0.00,,,0.00,VWS V15.00,2014-03-24 04:06:00,
2014-03-23 23:07:00,49.2,41.6,30.21,NNW,333,3.0,4.0,75,0.00,,,0.00,VWS V15.00,2014-03-24 04:07:00,
2014-03-23 23:11:00,49.1,41.5,30.21,NNW,338,1.0,4.0,75,0.00,,,0.00,VWS V15.00,2014-03-24 04:11:00,
2014-03-23 23:12:00,49.2,41.3,30.20,North,355,3.0,5.0,74,0.00,,,0.00,VWS V15.00,2014-03-24 04:12:00,
2014-03-23 23:13:00,49.1,41.5,30.21,NNW,344,0.0,5.0,75,0.00,,,0.00,VWS V15.00,2014-03-24 04:13:00,
2014-03-23 23:16:00,49.1,41.5,30.21,WNW,302,0.0,5.0,75,0.00,,,0.00,VWS V15.00,2014-03-24 04:16:00,
2014-03-23 23:17:00,49.1,41.5,30.21,WNW,302,0.0,5.0,75,0.00,,,0.00,VWS V15.00,2014-03-24 04:17:00,
2014-03-23 23:18:00,49.1,41.5,30.21,NNW,328,2.0,5.0,75,0.00,,,0.00,VWS V15.00,2014-03-24 04:18:00,
2014-03-23 23:21:00,49.2,41.6,30.21,NNW,337,0.0,5.0,75,0.00,,,0.00,VWS V15.00,2014-03-24 04:21:00,
2014-03-23 23:22:00,49.1,41.5,30.21,NNW,340,2.0,5.0,75,0.00,,,0.00,VWS V15.00,2014-03-24 04:22:00,
2014-03-23 23:23:00,49.2,41.6,30.21,WNW,291,0.0,5.0,75,0.00,,,0.00,VWS V15.00,2014-03-24 04:23:00,
2014-03-23 23:24:00,49.1,41.5,30.21,WNW,291,0.0,5.0,75,0.00,,,0.00,VWS V15.00,2014-03-24 04:24:00,
2014-03-23 23:26:00,49.2,41.6,30.21,WNW,298,0.0,5.0,75,0.00,,,0.00,VWS V15.00,2014-03-24 04:26:00,
2014-03-23 23:27:00,49.2,41.6,30.21,WNW,298,1.0,5.0,75,0.00,,,0.00,VWS V15.00,2014-03-24 04:27:00,
2014-03-23 23:29:00,49.2,41.6,30.21,East,90,1.0,3.0,75,0.00,,,0.00,VWS V15.00,2014-03-24 04:29:00,
2014-03-23 23:31:00,49.2,41.6,30.21,WNW,296,2.0,5.0,75,0.00,,,0.00,VWS V15.00,2014-03-24 04:31:00,
2014-03-23 23:32:00,49.2,41.6,30.21,NW,321,1.0,5.0,75,0.00,,,0.00,VWS V15.00,2014-03-24 04:32:00,
2014-03-23 23:34:00,49.2,41.6,30.21,NW,316,0.0,5.0,75,0.00,,,0.00,VWS V15.00,2014-03-24 04:34:00,
2014-03-23 23:36:00,49.2,41.6,30.21,NNE,13,5.0,6.0,75,0.00,,,0.00,VWS V15.00,2014-03-24 04:36:00,
2014-03-23 23:37:00,49.2,41.6,30.21,North,9,3.0,6.0,75,0.00,,,0.00,VWS V15.00,2014-03-24 04:37:00,
2014-03-23 23:38:00,49.2,41.6,30.21,North,9,0.0,6.0,75,0.00,,,0.00,VWS V15.00,2014-03-24 04:38:00,
2014-03-23 23:39:00,49.2,41.6,30.20,North,9,1.0,6.0,75,0.00,,,0.00,VWS V15.00,2014-03-24 04:39:00,
2014-03-23 23:41:00,49.2,42.0,30.20,West,277,0.0,6.0,76,0.00,,,0.00,VWS V15.00,2014-03-24 04:41:00,
2014-03-23 23:42:00,49.2,42.0,30.20,WNW,298,1.0,6.0,76,0.00,,,0.00,VWS V15.00,2014-03-24 04:42:00,
2014-03-23 23:43:00,49.2,42.0,30.20,WNW,298,0.0,6.0,76,0.00,,,0.00,VWS V15.00,2014-03-24 04:43:00,
2014-03-23 23:44:00,49.2,42.0,30.20,North,5,0.0,6.0,76,0.00,,,0.00,VWS V15.00,2014-03-24 04:44:00,
2014-03-23 23:45:00,49.2,42.0,30.20,North,5,1.0,6.0,76,0.00,,,0.00,VWS V15.00,2014-03-24 04:45:00,
2014-03-23 23:46:00,49.3,42.1,30.20,NNW,327,1.0,6.0,76,0.00,,,0.00,VWS V15.00,2014-03-24 04:46:00,
2014-03-23 23:48:00,49.3,41.7,30.20,NNE,17,2.0,6.0,75,0.00,,,0.00,VWS V15.00,2014-03-24 04:48:00,
2014-03-23 23:49:00,49.3,42.1,30.20,North,355,2.0,6.0,76,0.00,,,0.00,VWS V15.00,2014-03-24 04:49:00,
2014-03-23 23:50:00,49.3,42.1,30.20,North,355,1.0,6.0,76,0.00,,,0.00,VWS V15.00,2014-03-24 04:50:00,
2014-03-23 23:51:00,49.2,42.0,30.20,North,11,4.0,6.0,76,0.00,,,0.00,VWS V15.00,2014-03-24 04:51:00,
2014-03-23 23:53:00,49.3,42.1,30.20,North,9,3.0,6.0,76,0.00,,,0.00,VWS V15.00,2014-03-24 04:53:00,
2014-03-23 23:54:00,49.3,42.1,30.20,NW,306,2.0,6.0,76,0.00,,,0.00,VWS V15.00,2014-03-24 04:54:00,
2014-03-23 23:55:00,49.3,42.1,30.20,NW,306,0.0,6.0,76,0.00,,,0.00,VWS V15.00,2014-03-24 04:55:00,
2014-03-23 23:57:00,49.3,42.1,30.20,NNW,344,1.0,6.0,76,0.00,,,0.00,VWS V15.00,2014-03-24 04:57:00,
2014-03-23 23:58:00,49.2,42.0,30.20,NNW,333,1.0,6.0,76,0.00,,,0.00,VWS V15.00,2014-03-24 04:58:00,